VA9275 / VH-YUD 7700 Squawk Report (24th of May, 2022)

Time Lat Lon Altitude Heading Speed Vertical Rate
2022-05-24 08:12:56 GMT -31.943424 115.970924 0 104 2 0
2022-05-24 08:12:44 GMT -31.943413 115.970940 0 104 2 0
2022-05-24 08:12:33 GMT -31.943390 115.970795 0 104 2 0
2022-05-24 08:12:30 GMT -31.943378 115.970718 0 104 3 0
2022-05-24 08:12:23 GMT -31.943310 115.970497 0 98 4 0
2022-05-24 08:12:12 GMT -31.943378 115.970154 0 22 6 0
2022-05-24 08:12:00 GMT -31.943691 115.970001 0 50 9 0
2022-05-24 08:11:57 GMT -31.943762 115.969833 0 95 10 0
2022-05-24 08:11:52 GMT -31.943634 115.969238 0 104 13 0
2022-05-24 08:11:40 GMT -31.943447 115.968353 0 106 12 0
2022-05-24 08:11:29 GMT -31.943401 115.968117 0 112 12 0
2022-05-24 08:11:20 GMT -31.943447 115.967712 0 42 9 0
2022-05-24 08:11:15 GMT -31.943710 115.967575 0 11 14 0
2022-05-24 08:11:08 GMT -31.944145 115.967461 0 14 15 0
2022-05-24 08:10:56 GMT -31.944832 115.967216 0 36 12 0
2022-05-24 08:10:46 GMT -31.945061 115.966736 0 90 10 0
2022-05-24 08:10:38 GMT -31.944843 115.965599 0 104 11 0
2022-05-24 08:10:27 GMT -31.944843 115.965569 0 104 11 0
2022-05-24 08:10:23 GMT -31.944775 115.965279 0 104 15 0
2022-05-24 08:10:14 GMT -31.944647 115.964645 0 101 16 0
2022-05-24 08:10:02 GMT -31.943584 115.964111 0 191 23 0
2022-05-24 08:09:57 GMT -31.943584 115.964111 0 191 27 0
2022-05-24 08:09:52 GMT -31.942978 115.964294 0 194 34 0
2022-05-24 08:09:51 GMT -31.942820 115.964340 0 194 37 0
2022-05-24 08:09:50 GMT -31.942551 115.964409 0 194 40 0
2022-05-24 08:09:44 GMT -31.941294 115.964783 0 194 54 0
2022-05-24 08:09:40 GMT -31.940220 115.965088 0 194 62 0
2022-05-24 08:09:36 GMT -31.938961 115.965462 0 194 69 0
2022-05-24 08:09:35 GMT -31.938768 115.965515 0 194 69 0
2022-05-24 08:09:27 GMT -31.936268 115.966232 0 194 92 0
2022-05-24 08:09:18 GMT -31.931705 115.967575 50 194 125 0
2022-05-24 08:09:11 GMT -31.928040 115.968597 50 195 122 -704
2022-05-24 08:09:08 GMT -31.925537 115.969376 150 194 123 -640
2022-05-24 08:09:04 GMT -31.923981 115.969810 150 194 122 -640
2022-05-24 08:09:02 GMT -31.922314 115.970276 175 194 122 -640
2022-05-24 08:08:57 GMT -31.920227 115.970909 225 195 121 -704
2022-05-24 08:08:55 GMT -31.919128 115.971237 225 194 121 -640
2022-05-24 08:08:54 GMT -31.918589 115.971397 250 194 122 -704
2022-05-24 08:08:53 GMT -31.918030 115.971573 250 193 120 -768
2022-05-24 08:08:52 GMT -31.917238 115.971733 275 194 120 -384
2022-05-24 08:08:50 GMT -31.915421 115.972282 300 195 121 -320
2022-05-24 08:08:49 GMT -31.915421 115.972282 300 195 121 -512
2022-05-24 08:08:48 GMT -31.915096 115.972351 300 194 121 -640
2022-05-24 08:08:46 GMT -31.913223 115.972946 350 194 121 -896
2022-05-24 08:08:45 GMT -31.913223 115.972946 350 194 121 -768
2022-05-24 08:08:44 GMT -31.912676 115.973083 350 194 121 -640
2022-05-24 08:08:42 GMT -31.911667 115.973328 375 195 121 -576
2022-05-24 08:08:41 GMT -31.911140 115.973526 375 195 121 -576
2022-05-24 08:08:40 GMT -31.910614 115.973709 400 195 121 -704
2022-05-24 08:08:39 GMT -31.909744 115.973930 400 195 121 -704
2022-05-24 08:08:36 GMT -31.908646 115.974258 425 194 120 -768
2022-05-24 08:08:34 GMT -31.907648 115.974541 450 194 120 -704
2022-05-24 08:08:33 GMT -31.906265 115.974976 475 194 120 -576
2022-05-24 08:08:31 GMT -31.905693 115.975098 500 194 120 -512
2022-05-24 08:08:30 GMT -31.905273 115.975266 500 194 120 -640
2022-05-24 08:08:29 GMT -31.904755 115.975418 500 194 120 -640
2022-05-24 08:08:27 GMT -31.903656 115.975746 525 194 120 -576
2022-05-24 08:08:25 GMT -31.902901 115.975937 550 195 120 -704
2022-05-24 08:08:22 GMT -31.900946 115.976501 575 195 121 -576
2022-05-24 08:08:20 GMT -31.899828 115.976837 600 194 121 -640
2022-05-24 08:08:19 GMT -31.899408 115.976952 600 194 121 -576
2022-05-24 08:08:18 GMT -31.898849 115.977119 625 194 121 -640
2022-05-24 08:08:16 GMT -31.897751 115.977448 650 194 121 -640
2022-05-24 08:08:15 GMT -31.897110 115.977615 650 195 121 -704
2022-05-24 08:08:14 GMT -31.896240 115.977890 675 195 121 -832
2022-05-24 08:08:13 GMT -31.895685 115.978073 675 195 120 -832
2022-05-24 08:08:11 GMT -31.894567 115.978348 700 195 121 -704
2022-05-24 08:08:10 GMT -31.894043 115.978546 725 195 121 -704
2022-05-24 08:08:09 GMT -31.892944 115.978874 750 194 120 -704
2022-05-24 08:08:06 GMT -31.892303 115.979042 750 194 120 -640
2022-05-24 08:08:05 GMT -31.891663 115.979202 775 194 120 -576
2022-05-24 08:08:04 GMT -31.891075 115.979362 775 194 120 -512
2022-05-24 08:08:03 GMT -31.890425 115.979584 800 194 120 -576
2022-05-24 08:08:00 GMT -31.888824 115.980026 825 194 120 -448
2022-05-24 08:07:59 GMT -31.888515 115.980141 825 194 120 -448
2022-05-24 08:07:58 GMT -31.887955 115.980301 825 195 120 -640
2022-05-24 08:07:55 GMT -31.886095 115.980820 850 195 122 -512
2022-05-24 08:07:54 GMT -31.885675 115.980988 875 195 122 -512
2022-05-24 08:07:52 GMT -31.884659 115.981239 875 194 124 -1152
2022-05-24 08:07:51 GMT -31.883972 115.981461 900 194 124 -1472
2022-05-24 08:07:50 GMT -31.883209 115.981659 925 194 124 -1472
2022-05-24 08:07:47 GMT -31.881626 115.982101 950 195 123 -832
2022-05-24 08:07:46 GMT -31.881088 115.982285 975 195 123 -832
2022-05-24 08:07:44 GMT -31.879944 115.982613 1,000 195 120 -448
2022-05-24 08:07:43 GMT -31.879438 115.982780 1,025 195 119 -448
2022-05-24 08:07:42 GMT -31.878891 115.982941 1,025 195 119 -448
2022-05-24 08:07:40 GMT -31.877792 115.983269 1,050 194 117 -832
2022-05-24 08:07:39 GMT -31.877251 115.983398 1,050 195 117 -768
2022-05-24 08:07:38 GMT -31.876740 115.983543 1,050 195 118 -576
2022-05-24 08:07:36 GMT -31.875574 115.983902 1,075 195 118 -512
2022-05-24 08:07:35 GMT -31.875046 115.984093 1,075 194 118 -384
2022-05-24 08:07:34 GMT -31.873993 115.984367 1,100 194 118 -704
2022-05-24 08:07:31 GMT -31.873247 115.984573 1,125 194 119 -640
2022-05-24 08:07:30 GMT -31.872711 115.984756 1,125 194 119 -448
2022-05-24 08:07:28 GMT -31.871525 115.985077 1,150 195 119 -448
2022-05-24 08:07:27 GMT -31.870972 115.985191 1,150 195 119 -384
2022-05-24 08:07:25 GMT -31.869873 115.985519 1,175 195 120 -960
2022-05-24 08:07:24 GMT -31.869150 115.985748 1,200 195 122 -576
2022-05-24 08:07:21 GMT -31.867615 115.986252 1,225 195 121 -832
2022-05-24 08:07:19 GMT -31.866165 115.986679 1,250 194 121 -704
2022-05-24 08:07:18 GMT -31.865192 115.986923 1,275 194 122 -448
2022-05-24 08:07:16 GMT -31.864727 115.987091 1,275 194 122 -640
2022-05-24 08:07:15 GMT -31.864197 115.987228 1,300 195 122 -704
2022-05-24 08:07:12 GMT -31.862869 115.987610 1,325 195 123 -512
2022-05-24 08:07:11 GMT -31.862183 115.987831 1,325 195 125 -512
2022-05-24 08:07:10 GMT -31.861725 115.987938 1,325 195 126 -576
2022-05-24 08:07:08 GMT -31.860580 115.988266 1,350 194 127 -1024
2022-05-24 08:07:07 GMT -31.860025 115.988441 1,375 195 127 -1024
2022-05-24 08:07:06 GMT -31.859560 115.988609 1,375 194 128 -1152
2022-05-24 08:07:04 GMT -31.858397 115.988945 1,425 195 129 -832
2022-05-24 08:07:03 GMT -31.857834 115.989090 1,425 195 129 -768
2022-05-24 08:07:02 GMT -31.857233 115.989281 1,450 195 129 -832
2022-05-24 08:07:01 GMT -31.856461 115.989532 1,475 195 129 -896
2022-05-24 08:07:00 GMT -31.855650 115.989784 1,500 195 129 -896
2022-05-24 08:06:58 GMT -31.854486 115.990120 1,525 194 129 -704
2022-05-24 08:06:57 GMT -31.853897 115.990250 1,525 194 129 -768
2022-05-24 08:06:56 GMT -31.853275 115.990456 1,550 194 130 -512
2022-05-24 08:06:55 GMT -31.852112 115.990791 1,550 195 133 -448
2022-05-24 08:06:53 GMT -31.851646 115.990906 1,575 194 133 -512
2022-05-24 08:06:52 GMT -31.851013 115.991074 1,575 195 136 -384
2022-05-24 08:06:51 GMT -31.849413 115.991524 1,600 194 138 -512
2022-05-24 08:06:48 GMT -31.848946 115.991692 1,600 194 139 -704
2022-05-24 08:06:47 GMT -31.847809 115.992004 1,600 194 140 -768
2022-05-24 08:06:46 GMT -31.847260 115.992172 1,625 194 142 -704
2022-05-24 08:06:44 GMT -31.845749 115.992607 1,650 194 145 -704
2022-05-24 08:06:43 GMT -31.845200 115.992775 1,650 194 145 -704
2022-05-24 08:06:40 GMT -31.841766 115.993706 1,725 194 147 -896
2022-05-24 08:06:38 GMT -31.841766 115.993706 1,725 195 148 -832
2022-05-24 08:06:37 GMT -31.841263 115.993874 1,725 195 148 -832
2022-05-24 08:06:36 GMT -31.839890 115.994255 1,750 194 149 -1024
2022-05-24 08:06:34 GMT -31.839111 115.994530 1,775 194 150 -832
2022-05-24 08:06:33 GMT -31.838425 115.994720 1,800 195 151 -896
2022-05-24 08:06:31 GMT -31.836796 115.995163 1,825 195 152 -768
2022-05-24 08:06:28 GMT -31.835541 115.995522 1,850 195 152 -832
2022-05-24 08:06:27 GMT -31.834841 115.995728 1,875 194 153 -768
2022-05-24 08:06:26 GMT -31.832653 115.996399 1,875 194 154 -640
2022-05-24 08:06:24 GMT -31.832653 115.996399 1,900 195 155 -640
2022-05-24 08:06:23 GMT -31.831924 115.996620 1,900 195 156 -704
2022-05-24 08:06:22 GMT -31.831375 115.996780 1,925 194 157 -896
2022-05-24 08:06:20 GMT -31.829813 115.997238 1,925 195 160 -768
2022-05-24 08:06:18 GMT -31.828091 115.997742 1,975 195 161 -896
2022-05-24 08:06:17 GMT -31.827347 115.997993 1,975 195 161 -960
2022-05-24 08:06:15 GMT -31.825483 115.998528 2,025 195 162 -896
2022-05-24 08:06:11 GMT -31.822552 115.999481 2,100 196 164 -896
2022-05-24 08:06:08 GMT -31.821060 115.999931 2,125 196 164 -896
2022-05-24 08:06:05 GMT -31.818878 116.000626 2,150 196 164 -896
2022-05-24 08:06:02 GMT -31.815475 116.001724 2,225 197 165 -960
2022-05-24 08:05:59 GMT -31.814438 116.002113 2,250 197 165 -896
2022-05-24 08:05:56 GMT -31.811937 116.002960 2,300 198 166 -1088
2022-05-24 08:05:52 GMT -31.809563 116.003853 2,350 199 167 -768
2022-05-24 08:05:49 GMT -31.804413 116.006065 2,450 214 169 64
2022-05-24 08:05:45 GMT -31.804413 116.006065 2,425 203 170 -448
2022-05-24 08:05:42 GMT -31.801575 116.007607 2,450 209 169 0
2022-05-24 08:05:39 GMT -31.798996 116.009399 2,450 214 169 64
2022-05-24 08:05:35 GMT -31.797180 116.011063 2,450 224 167 64
2022-05-24 08:05:31 GMT -31.794712 116.014114 2,450 232 169 64
2022-05-24 08:05:28 GMT -31.793549 116.015846 2,450 233 169 -64
2022-05-24 08:05:24 GMT -31.791035 116.019661 2,450 233 170 -64
2022-05-24 08:05:20 GMT -31.789499 116.022018 2,450 234 171 -64
2022-05-24 08:05:17 GMT -31.788208 116.023972 2,450 233 174 0
2022-05-24 08:05:14 GMT -31.787064 116.025787 2,450 233 177 0
2022-05-24 08:05:11 GMT -31.784937 116.029022 2,450 233 180 64
2022-05-24 08:05:07 GMT -31.781799 116.033974 2,450 233 185 0
2022-05-24 08:05:04 GMT -31.781799 116.033974 2,450 233 187 -128
2022-05-24 08:05:01 GMT -31.779648 116.037216 2,450 233 191 -192
2022-05-24 08:04:58 GMT -31.778048 116.039726 2,450 233 192 -192
2022-05-24 08:04:53 GMT -31.776169 116.042542 2,450 233 196 0
2022-05-24 08:04:49 GMT -31.773697 116.046280 2,450 233 201 -128
2022-05-24 08:04:46 GMT -31.771408 116.049767 2,450 233 203 -64
2022-05-24 08:04:42 GMT -31.768970 116.053421 2,450 233 206 -64
2022-05-24 08:04:39 GMT -31.767426 116.055748 2,450 232 210 -128
2022-05-24 08:04:35 GMT -31.764999 116.059357 2,475 233 213 -64
2022-05-24 08:04:32 GMT -31.760834 116.065659 2,475 233 216 -256
2022-05-24 08:04:29 GMT -31.760834 116.065659 2,500 233 219 -384
2022-05-24 08:04:25 GMT -31.758545 116.069046 2,500 232 222 -640
2022-05-24 08:04:22 GMT -31.756866 116.071487 2,550 229 225 -896
2022-05-24 08:04:20 GMT -31.754883 116.074326 2,550 229 225 -896
2022-05-24 08:04:17 GMT -31.752914 116.076805 2,600 224 225 -1216
2022-05-24 08:04:14 GMT -31.750908 116.078964 2,650 219 226 -1344
2022-05-24 08:04:10 GMT -31.747509 116.081871 2,825 209 227 -1280
2022-05-24 08:04:06 GMT -31.743877 116.084396 2,825 209 227 -1280
2022-05-24 08:04:03 GMT -31.741104 116.086174 2,900 209 228 -1280
2022-05-24 08:03:59 GMT -31.737593 116.088463 2,975 209 228 -1280
2022-05-24 08:03:54 GMT -31.733322 116.091187 3,075 209 228 -1344
2022-05-24 08:03:50 GMT -31.729980 116.093338 3,150 209 228 -1216
2022-05-24 08:03:46 GMT -31.725540 116.096191 3,250 209 228 -1280
2022-05-24 08:03:42 GMT -31.721832 116.098618 3,325 209 229 -1216
2022-05-24 08:03:39 GMT -31.719955 116.099800 3,375 209 229 -1216
2022-05-24 08:03:37 GMT -31.716784 116.101814 3,425 209 229 -1216
2022-05-24 08:03:32 GMT -31.712494 116.104591 3,550 209 229 -1280
2022-05-24 08:03:29 GMT -31.710617 116.105782 3,575 209 230 -1280
2022-05-24 08:03:24 GMT -31.705765 116.108902 3,675 209 230 -1344
2022-05-24 08:03:19 GMT -31.699608 116.112854 3,925 209 227 -2368
2022-05-24 08:03:14 GMT -31.695694 116.115364 3,975 209 226 -2112
2022-05-24 08:03:11 GMT -31.692398 116.117516 4,100 209 225 -1536
2022-05-24 08:03:08 GMT -31.690933 116.118431 4,125 209 225 -1216
2022-05-24 08:03:06 GMT -31.688202 116.120216 4,200 209 225 -1216
2022-05-24 08:03:02 GMT -31.681591 116.124443 4,375 209 226 -1152
2022-05-24 08:02:58 GMT -31.681591 116.124443 4,350 209 225 -1152
2022-05-24 08:02:56 GMT -31.676470 116.127739 4,425 209 226 -1152
2022-05-24 08:02:53 GMT -31.676470 116.127739 4,450 209 226 -1088
2022-05-24 08:02:47 GMT -31.671349 116.131088 4,575 209 226 -1216
2022-05-24 08:02:46 GMT -31.669647 116.132111 4,600 209 226 -1280
2022-05-24 08:02:44 GMT -31.668743 116.132736 4,625 209 226 -1344
2022-05-24 08:02:43 GMT -31.667816 116.133301 4,650 209 226 -1344
2022-05-24 08:02:42 GMT -31.665810 116.134605 4,700 209 226 -1344
2022-05-24 08:02:40 GMT -31.665066 116.135048 4,725 209 226 -1280
2022-05-24 08:02:39 GMT -31.664154 116.135666 4,725 209 226 -1216
2022-05-24 08:02:37 GMT -31.662458 116.136696 4,775 209 226 -1280
2022-05-24 08:02:36 GMT -31.661015 116.137627 4,800 209 226 -1280
2022-05-24 08:02:35 GMT -31.660080 116.138199 4,825 209 226 -1280
2022-05-24 08:02:33 GMT -31.658035 116.139496 4,875 209 226 -1216
2022-05-24 08:02:31 GMT -31.657291 116.139992 4,900 209 226 -1216
2022-05-24 08:02:30 GMT -31.656219 116.140701 4,900 209 226 -1216
2022-05-24 08:02:29 GMT -31.654358 116.141861 4,950 209 226 -1216
2022-05-24 08:02:27 GMT -31.653442 116.142448 4,975 209 226 -1152
2022-05-24 08:02:26 GMT -31.652298 116.143150 5,000 209 226 -1152
2022-05-24 08:02:25 GMT -31.650467 116.144341 5,025 209 226 -1280
2022-05-24 08:02:23 GMT -31.648817 116.145432 5,075 209 227 -1152
2022-05-24 08:02:21 GMT -31.647858 116.146004 5,100 209 227 -1152
2022-05-24 08:02:20 GMT -31.646027 116.147194 5,125 209 228 -1152
2022-05-24 08:02:18 GMT -31.645094 116.147789 5,150 210 228 -960
2022-05-24 08:02:17 GMT -31.643976 116.148506 5,175 209 229 -896
2022-05-24 08:02:16 GMT -31.642115 116.149712 5,200 209 229 -640
2022-05-24 08:02:14 GMT -31.640625 116.150650 5,225 209 230 -512
2022-05-24 08:02:13 GMT -31.639709 116.151283 5,225 210 230 -512
2022-05-24 08:02:12 GMT -31.638763 116.151909 5,250 209 231 -512
2022-05-24 08:02:10 GMT -31.637421 116.152740 5,250 209 233 -512
2022-05-24 08:02:09 GMT -31.636482 116.153336 5,250 209 233 -512
2022-05-24 08:02:07 GMT -31.634573 116.154549 5,275 209 235 -512
2022-05-24 08:02:05 GMT -31.632889 116.155701 5,300 209 236 -512
2022-05-24 08:02:04 GMT -31.630966 116.156937 5,300 209 237 -576
2022-05-24 08:02:02 GMT -31.629776 116.157639 5,325 209 238 -512
2022-05-24 08:02:01 GMT -31.629044 116.158180 5,325 210 239 -512
2022-05-24 08:02:00 GMT -31.628056 116.158775 5,325 209 239 -576
2022-05-24 08:01:59 GMT -31.625729 116.160316 5,350 210 241 -512
2022-05-24 08:01:56 GMT -31.623774 116.161575 5,375 209 242 -576
2022-05-24 08:01:54 GMT -31.621771 116.162842 5,400 209 243 -576
2022-05-24 08:01:53 GMT -31.620804 116.163460 5,400 209 244 -576
2022-05-24 08:01:51 GMT -31.617813 116.165367 5,425 209 246 -640
2022-05-24 08:01:49 GMT -31.616821 116.166039 5,450 210 247 -640
2022-05-24 08:01:48 GMT -31.615997 116.166580 5,450 209 247 -704
2022-05-24 08:01:45 GMT -31.613617 116.168144 5,475 209 248 -768
2022-05-24 08:01:43 GMT -31.611603 116.169434 5,500 209 250 -768
2022-05-24 08:01:42 GMT -31.610552 116.170090 5,500 209 250 -832
2022-05-24 08:01:41 GMT -31.607294 116.172180 5,550 209 251 -896
2022-05-24 08:01:39 GMT -31.607294 116.172180 5,550 209 251 -960
2022-05-24 08:01:38 GMT -31.606293 116.172829 5,575 209 251 -1024
2022-05-24 08:01:36 GMT -31.604233 116.174118 5,600 209 252 -1344
2022-05-24 08:01:35 GMT -31.603197 116.174820 5,625 209 252 -1344
2022-05-24 08:01:34 GMT -31.601149 116.176079 5,650 209 252 -1344
2022-05-24 08:01:32 GMT -31.599520 116.177124 5,700 209 252 -1408
2022-05-24 08:01:31 GMT -31.598680 116.177673 5,725 209 252 -1408
2022-05-24 08:01:30 GMT -31.597425 116.178444 5,750 209 252 -1408
2022-05-24 08:01:29 GMT -31.596405 116.179131 5,750 209 252 -1408
2022-05-24 08:01:27 GMT -31.594345 116.180420 5,800 209 252 -1472
2022-05-24 08:01:26 GMT -31.593328 116.181076 5,825 209 252 -1408
2022-05-24 08:01:24 GMT -31.592072 116.181847 5,850 209 252 -1344
2022-05-24 08:01:22 GMT -31.589813 116.183273 5,925 209 253 -1472
2022-05-24 08:01:21 GMT -31.588766 116.183937 5,925 209 253 -1344
2022-05-24 08:01:20 GMT -31.587753 116.184570 5,950 209 253 -1280
2022-05-24 08:01:19 GMT -31.585693 116.185860 6,000 209 253 -1472
2022-05-24 08:01:17 GMT -31.584669 116.186516 6,025 209 253 -1408
2022-05-24 08:01:16 GMT -31.583633 116.187202 6,050 209 253 -1344
2022-05-24 08:01:15 GMT -31.582575 116.187836 6,075 209 253 -1408
2022-05-24 08:01:13 GMT -31.579687 116.189651 6,125 209 253 -1280
2022-05-24 08:01:12 GMT -31.579687 116.189651 6,125 209 253 -1280
2022-05-24 08:01:11 GMT -31.578278 116.190598 6,175 209 253 -1408
2022-05-24 08:01:10 GMT -31.576172 116.191895 6,200 209 253 -1408
2022-05-24 08:01:08 GMT -31.575172 116.192558 6,225 209 253 -1408
2022-05-24 08:01:07 GMT -31.573915 116.193329 6,250 209 253 -1408
2022-05-24 08:01:06 GMT -31.572052 116.194527 6,300 209 253 -1472
2022-05-24 08:01:04 GMT -31.571030 116.195198 6,325 209 253 -1408
2022-05-24 08:01:03 GMT -31.569992 116.195824 6,350 209 253 -1344
2022-05-24 08:01:02 GMT -31.566467 116.198051 6,400 209 254 -1408
2022-05-24 08:01:00 GMT -31.566467 116.198051 6,425 209 254 -1408
2022-05-24 08:00:59 GMT -31.566048 116.198326 6,425 209 254 -1408
2022-05-24 08:00:57 GMT -31.563354 116.200073 6,500 209 254 -1408
2022-05-24 08:00:56 GMT -31.562531 116.200562 6,525 209 254 -1472
2022-05-24 08:00:54 GMT -31.560648 116.201790 6,550 209 254 -1408
2022-05-24 08:00:53 GMT -31.559647 116.202446 6,575 209 254 -1408
2022-05-24 08:00:52 GMT -31.557999 116.203522 6,625 209 254 -1344
2022-05-24 08:00:51 GMT -31.555893 116.204872 6,650 209 254 -1344
2022-05-24 08:00:49 GMT -31.554876 116.205521 6,675 209 255 -1344
2022-05-24 08:00:48 GMT -31.553833 116.206161 6,700 209 255 -1344
2022-05-24 08:00:46 GMT -31.551991 116.207390 6,750 209 255 -1344
2022-05-24 08:00:45 GMT -31.550537 116.208321 6,775 209 255 -1408
2022-05-24 08:00:44 GMT -31.549477 116.208984 6,800 209 255 -1344
2022-05-24 08:00:43 GMT -31.548431 116.209663 6,825 209 255 -1408
2022-05-24 08:00:41 GMT -31.546371 116.210953 6,875 209 255 -1408
2022-05-24 08:00:39 GMT -31.545334 116.211624 6,900 209 255 -1408
2022-05-24 08:00:38 GMT -31.544678 116.212036 6,900 209 255 -1408
2022-05-24 08:00:37 GMT -31.542206 116.213646 6,950 209 256 -1472
2022-05-24 08:00:35 GMT -31.541143 116.214310 6,975 209 256 -1472
2022-05-24 08:00:34 GMT -31.540100 116.214996 7,000 209 256 -1472
2022-05-24 08:00:33 GMT -31.539095 116.215630 7,025 209 256 -1472
2022-05-24 08:00:31 GMT -31.537001 116.217003 7,075 209 256 -1472
2022-05-24 08:00:30 GMT -31.535744 116.217773 7,100 209 256 -1472
2022-05-24 08:00:29 GMT -31.534698 116.218437 7,125 209 256 -1472
2022-05-24 08:00:27 GMT -31.532810 116.219643 7,175 209 257 -1472
2022-05-24 08:00:26 GMT -31.531769 116.220329 7,200 209 257 -1536
2022-05-24 08:00:25 GMT -31.530716 116.221016 7,225 209 257 -1536
2022-05-24 08:00:24 GMT -31.529663 116.221672 7,250 209 257 -1472
2022-05-24 08:00:23 GMT -31.527557 116.223022 7,300 209 257 -1408
2022-05-24 08:00:21 GMT -31.526321 116.223824 7,325 209 257 -1408
2022-05-24 08:00:19 GMT -31.524012 116.225296 7,375 209 257 -1280
2022-05-24 08:00:18 GMT -31.522934 116.225929 7,400 209 258 -1280
2022-05-24 08:00:17 GMT -31.521870 116.226616 7,425 209 258 -1280
2022-05-24 08:00:16 GMT -31.521032 116.227165 7,425 209 258 -1280
2022-05-24 08:00:14 GMT -31.518936 116.228485 7,475 209 258 -1408
2022-05-24 08:00:13 GMT -31.517487 116.229431 7,500 209 258 -1408
2022-05-24 08:00:11 GMT -31.515381 116.230774 7,550 209 258 -1472
2022-05-24 08:00:10 GMT -31.514511 116.231316 7,575 209 259 -1408
2022-05-24 08:00:09 GMT -31.513687 116.231850 7,600 209 260 -1344
2022-05-24 08:00:08 GMT -31.511581 116.233200 7,625 209 260 -1344
2022-05-24 08:00:05 GMT -31.509476 116.234543 7,675 209 260 -1472
2022-05-24 08:00:04 GMT -31.507113 116.236069 7,725 209 260 -1408
2022-05-24 08:00:01 GMT -31.504807 116.237503 7,775 209 260 -1472
2022-05-24 08:00:00 GMT -31.504133 116.237930 7,800 209 260 -1472
2022-05-24 07:59:59 GMT -31.501373 116.239662 7,850 209 261 -1472
2022-05-24 07:59:57 GMT -31.500736 116.240074 7,875 209 261 -1472
2022-05-24 07:59:56 GMT -31.499680 116.240738 7,900 209 261 -1472
2022-05-24 07:59:54 GMT -31.497574 116.242081 7,950 209 261 -1472
2022-05-24 07:59:53 GMT -31.496080 116.243042 7,975 209 261 -1408
2022-05-24 07:59:51 GMT -31.494778 116.243813 8,000 209 261 -1408
2022-05-24 07:59:50 GMT -31.493271 116.244774 8,025 209 261 -1408
2022-05-24 07:59:49 GMT -31.491796 116.245735 8,075 209 262 -1408
2022-05-24 07:59:48 GMT -31.489656 116.247055 8,125 209 262 -1408
2022-05-24 07:59:46 GMT -31.488556 116.247742 8,150 209 262 -1408
2022-05-24 07:59:45 GMT -31.487732 116.248276 8,150 209 262 -1408
2022-05-24 07:59:44 GMT -31.485373 116.249802 8,200 209 262 -1472
2022-05-24 07:59:42 GMT -31.484299 116.250427 8,225 209 263 -1472
2022-05-24 07:59:41 GMT -31.483017 116.251289 8,250 209 264 -1472
2022-05-24 07:59:40 GMT -31.482147 116.251831 8,275 209 264 -1472
2022-05-24 07:59:38 GMT -31.479996 116.253174 8,325 209 264 -1536
2022-05-24 07:59:35 GMT -31.477646 116.254684 8,375 209 264 -1600
2022-05-24 07:59:34 GMT -31.476562 116.255386 8,400 209 264 -1536
2022-05-24 07:59:33 GMT -31.475458 116.256058 8,425 209 264 -1536
2022-05-24 07:59:31 GMT -31.473316 116.257431 8,525 209 265 -1536
2022-05-24 07:59:30 GMT -31.472260 116.258133 8,525 209 265 -1600
2022-05-24 07:59:29 GMT -31.471174 116.258804 8,525 209 265 -1600
2022-05-24 07:59:27 GMT -31.468987 116.260178 8,575 209 265 -1600
2022-05-24 07:59:25 GMT -31.465759 116.262222 8,650 209 266 -1600
2022-05-24 07:59:23 GMT -31.464239 116.263199 8,700 209 266 -1664
2022-05-24 07:59:21 GMT -31.461212 116.265121 8,775 209 266 -1728
2022-05-24 07:59:19 GMT -31.460129 116.265831 8,800 209 266 -1728
2022-05-24 07:59:18 GMT -31.459024 116.266495 8,825 209 267 -1664
2022-05-24 07:59:16 GMT -31.456837 116.267868 8,900 209 267 -1664
2022-05-24 07:59:15 GMT -31.455780 116.268578 8,925 209 267 -1600
2022-05-24 07:59:14 GMT -31.454695 116.269302 8,950 209 267 -1344
2022-05-24 07:59:12 GMT -31.452713 116.270515 9,000 209 268 -1088
2022-05-24 07:59:11 GMT -31.450516 116.271919 9,025 209 269 -1088
2022-05-24 07:59:09 GMT -31.448776 116.272995 9,050 209 269 -1152
2022-05-24 07:59:08 GMT -31.446991 116.274124 9,100 209 270 -1280
2022-05-24 07:59:06 GMT -31.445478 116.275124 9,125 209 271 -1152
2022-05-24 07:59:05 GMT -31.443924 116.276115 9,150 209 270 -1344
2022-05-24 07:59:04 GMT -31.442825 116.276825 9,150 209 270 -1664
2022-05-24 07:59:03 GMT -31.441940 116.277374 9,175 209 270 -1600
2022-05-24 07:59:01 GMT -31.439753 116.278801 9,225 210 271 -1088
2022-05-24 07:59:00 GMT -31.438450 116.279678 9,250 210 270 -1856
2022-05-24 07:58:59 GMT -31.437565 116.280228 9,300 210 270 -2112
2022-05-24 07:58:57 GMT -31.436005 116.281235 9,325 210 270 -2112
2022-05-24 07:58:55 GMT -31.433853 116.282692 9,375 210 271 -1600
2022-05-24 07:58:54 GMT -31.432722 116.283417 9,400 210 270 -1088
2022-05-24 07:58:53 GMT -31.431656 116.284142 9,425 210 270 -960
2022-05-24 07:58:51 GMT -31.429232 116.285667 9,475 210 270 -1152
2022-05-24 07:58:50 GMT -31.428347 116.286270 9,500 210 269 -1856
2022-05-24 07:58:49 GMT -31.427261 116.286995 9,525 209 270 -1920
2022-05-24 07:58:48 GMT -31.424606 116.288666 9,575 209 269 -1344
2022-05-24 07:58:46 GMT -31.423971 116.289078 9,600 209 272 -512
2022-05-24 07:58:45 GMT -31.423040 116.289627 9,625 209 272 -512
2022-05-24 07:58:44 GMT -31.421494 116.290604 9,650 208 272 -512
2022-05-24 07:58:42 GMT -31.418989 116.292038 9,700 206 274 -1280
2022-05-24 07:58:41 GMT -31.418104 116.292534 9,725 205 274 -1600
2022-05-24 07:58:40 GMT -31.416710 116.293304 9,725 204 274 -1792
2022-05-24 07:58:39 GMT -31.414581 116.294373 9,775 203 275 -1408
2022-05-24 07:58:37 GMT -31.413404 116.294952 9,800 202 276 -1216
2022-05-24 07:58:36 GMT -31.412247 116.295509 9,825 201 276 -1152
2022-05-24 07:58:35 GMT -31.411030 116.296051 9,850 201 277 -1088
2022-05-24 07:58:33 GMT -31.408609 116.297096 9,875 200 277 -832
2022-05-24 07:58:32 GMT -31.406937 116.297768 9,900 199 277 -640
2022-05-24 07:58:30 GMT -31.404968 116.298576 9,925 199 279 -448
2022-05-24 07:58:29 GMT -31.403255 116.299240 9,925 199 280 -512
2022-05-24 07:58:28 GMT -31.401993 116.299706 9,950 199 280 -512
2022-05-24 07:58:27 GMT -31.399521 116.300728 9,950 199 283 -320
2022-05-24 07:58:25 GMT -31.398273 116.301216 9,950 199 284 -192
2022-05-24 07:58:24 GMT -31.397297 116.301598 9,975 199 285 -192
2022-05-24 07:58:22 GMT -31.393021 116.303261 9,975 199 288 -256
2022-05-24 07:58:20 GMT -31.393021 116.303261 9,975 199 288 -256
2022-05-24 07:58:19 GMT -31.391756 116.303795 9,975 199 289 -128
2022-05-24 07:58:18 GMT -31.389196 116.304787 9,975 199 292 64
2022-05-24 07:58:16 GMT -31.387939 116.305305 10,000 199 293 64
2022-05-24 07:58:15 GMT -31.386383 116.305901 10,000 199 294 64
2022-05-24 07:58:14 GMT -31.383820 116.306923 9,975 199 297 64
2022-05-24 07:58:12 GMT -31.382492 116.307419 9,975 199 298 64
2022-05-24 07:58:11 GMT -31.380911 116.308083 9,975 199 298 64
2022-05-24 07:58:10 GMT -31.378555 116.308968 9,975 199 302 0
2022-05-24 07:58:08 GMT -31.375650 116.310112 9,975 199 304 0
2022-05-24 07:58:05 GMT -31.372950 116.311211 9,975 199 304 0
2022-05-24 07:58:01 GMT -31.367844 116.313225 9,975 199 308 -64
2022-05-24 07:57:58 GMT -31.363779 116.314835 10,000 199 308 0
2022-05-24 07:57:56 GMT -31.361078 116.315880 10,000 199 308 0
2022-05-24 07:57:55 GMT -31.359192 116.316673 10,000 199 308 64
2022-05-24 07:57:54 GMT -31.357544 116.317322 10,000 199 308 0
2022-05-24 07:57:53 GMT -31.356192 116.317802 10,000 199 307 0
2022-05-24 07:57:52 GMT -31.354609 116.318466 10,000 199 307 0
2022-05-24 07:57:49 GMT -31.351908 116.319565 10,000 199 307 64
2022-05-24 07:57:48 GMT -31.350279 116.320168 10,000 199 307 64
2022-05-24 07:57:47 GMT -31.349720 116.320389 10,000 199 307 64
2022-05-24 07:57:46 GMT -31.347578 116.321266 10,000 199 307 -64
2022-05-24 07:57:44 GMT -31.343248 116.322968 10,000 199 307 0
2022-05-24 07:57:36 GMT -31.332960 116.326981 10,000 199 308 64
2022-05-24 07:57:34 GMT -31.330261 116.328079 10,000 199 308 0
2022-05-24 07:57:31 GMT -31.327560 116.329117 10,000 199 308 0
2022-05-24 07:57:30 GMT -31.326233 116.329651 10,000 199 308 0
2022-05-24 07:57:28 GMT -31.323486 116.330727 10,000 199 308 -64
2022-05-24 07:57:27 GMT -31.322161 116.331261 10,000 199 308 -64
2022-05-24 07:57:26 GMT -31.320786 116.331749 10,000 199 308 0
2022-05-24 07:57:25 GMT -31.317272 116.333183 10,000 199 308 0
2022-05-24 07:57:24 GMT -31.315933 116.333687 10,000 199 308 0
2022-05-24 07:57:21 GMT -31.313187 116.334770 10,000 199 308 -64
2022-05-24 07:57:20 GMT -31.310486 116.335846 10,000 199 308 0
2022-05-24 07:57:18 GMT -31.309128 116.336372 10,000 199 309 0
2022-05-24 07:57:17 GMT -31.307785 116.336922 10,000 199 309 0
2022-05-24 07:57:16 GMT -31.305868 116.337631 10,000 199 309 0
2022-05-24 07:57:15 GMT -31.302097 116.339119 10,000 199 309 -64
2022-05-24 07:57:13 GMT -31.302097 116.339119 10,000 199 310 -64
2022-05-24 07:57:12 GMT -31.300980 116.339554 10,000 199 309 -64
2022-05-24 07:57:11 GMT -31.297989 116.340744 10,000 199 308 0
2022-05-24 07:57:09 GMT -31.296652 116.341263 10,000 199 308 0
2022-05-24 07:57:08 GMT -31.295021 116.341919 10,000 199 308 64
2022-05-24 07:57:06 GMT -31.291763 116.343185 10,000 199 307 64
2022-05-24 07:57:03 GMT -31.288239 116.344513 10,000 199 308 -64
2022-05-24 07:57:01 GMT -31.286875 116.345047 10,000 199 308 -64
2022-05-24 07:57:00 GMT -31.285538 116.345589 10,000 199 308 -64
2022-05-24 07:56:58 GMT -31.283104 116.346535 10,000 199 308 64
2022-05-24 07:56:57 GMT -31.280640 116.347481 10,000 199 308 0
2022-05-24 07:56:55 GMT -31.278728 116.348236 10,000 199 308 64
2022-05-24 07:56:54 GMT -31.277390 116.348770 10,000 199 309 64
2022-05-24 07:56:53 GMT -31.276028 116.349281 10,000 199 309 64
2022-05-24 07:56:52 GMT -31.272722 116.350601 10,000 199 310 64
2022-05-24 07:56:49 GMT -31.270580 116.351425 10,000 199 311 0
2022-05-24 07:56:48 GMT -31.267836 116.352524 10,000 199 311 -128
2022-05-24 07:56:46 GMT -31.266449 116.353027 10,000 199 312 -128
2022-05-24 07:56:45 GMT -31.264528 116.353783 10,000 199 312 0
2022-05-24 07:56:44 GMT -31.263153 116.354370 10,000 199 312 0
2022-05-24 07:56:43 GMT -31.259857 116.355659 10,000 199 314 0
2022-05-24 07:56:41 GMT -31.258478 116.356201 10,000 199 314 64
2022-05-24 07:56:40 GMT -31.257111 116.356743 10,000 199 314 0
2022-05-24 07:56:39 GMT -31.254660 116.357742 10,000 199 314 -192
2022-05-24 07:56:37 GMT -31.252985 116.358398 10,000 200 313 0
2022-05-24 07:56:36 GMT -31.251617 116.358948 10,000 199 312 64
2022-05-24 07:56:33 GMT -31.246674 116.360886 10,000 199 311 -64
2022-05-24 07:56:31 GMT -31.246124 116.361153 10,000 199 311 -64
2022-05-24 07:56:29 GMT -31.243673 116.362076 10,000 199 310 -128
2022-05-24 07:56:28 GMT -31.241776 116.362877 10,000 199 310 -64
2022-05-24 07:56:27 GMT -31.240416 116.363396 10,000 199 309 0
2022-05-24 07:56:26 GMT -31.237715 116.364494 10,000 199 309 -64
2022-05-24 07:56:24 GMT -31.235779 116.365250 10,000 199 309 64
2022-05-24 07:56:22 GMT -31.232780 116.366417 10,000 199 309 128
2022-05-24 07:56:21 GMT -31.229828 116.367615 10,000 199 309 0
2022-05-24 07:56:19 GMT -31.228451 116.368118 10,000 199 309 -64
2022-05-24 07:56:18 GMT -31.227081 116.368698 10,000 199 309 -64
2022-05-24 07:56:16 GMT -31.224380 116.369774 10,000 199 308 0
2022-05-24 07:56:15 GMT -31.223282 116.370201 10,000 199 308 -64
2022-05-24 07:56:12 GMT -31.219793 116.371582 10,000 199 308 -64
2022-05-24 07:56:11 GMT -31.218430 116.372086 10,000 199 309 0
2022-05-24 07:56:10 GMT -31.217331 116.372520 10,000 199 309 0
2022-05-24 07:56:09 GMT -31.212717 116.374382 10,000 199 309 0
2022-05-24 07:56:07 GMT -31.212717 116.374382 10,000 199 309 128
2022-05-24 07:56:06 GMT -31.211380 116.374886 10,000 199 309 128
2022-05-24 07:56:04 GMT -31.208084 116.376183 10,000 199 309 0
2022-05-24 07:56:03 GMT -31.207535 116.376396 10,000 199 309 0
2022-05-24 07:56:02 GMT -31.205383 116.377258 10,000 199 310 -64
2022-05-24 07:56:01 GMT -31.204285 116.377686 10,000 199 310 0
2022-05-24 07:55:59 GMT -31.201584 116.378769 10,000 199 309 0
2022-05-24 07:55:58 GMT -31.200193 116.379272 10,000 199 310 64
2022-05-24 07:55:57 GMT -31.198837 116.379845 10,000 199 309 0
2022-05-24 07:55:56 GMT -31.197495 116.380371 10,000 199 309 0
2022-05-24 07:55:55 GMT -31.194748 116.381470 10,000 199 309 -64
2022-05-24 07:55:53 GMT -31.193390 116.381996 10,000 199 309 0
2022-05-24 07:55:52 GMT -31.191788 116.382645 10,000 199 309 -64
2022-05-24 07:55:50 GMT -31.189041 116.383720 10,000 199 310 -64
2022-05-24 07:55:49 GMT -31.187672 116.384270 10,000 199 310 0
2022-05-24 07:55:48 GMT -31.186340 116.384796 10,000 199 310 0
2022-05-24 07:55:46 GMT -31.183296 116.385971 10,000 199 311 0
2022-05-24 07:55:45 GMT -31.181946 116.386520 10,000 199 311 -64
2022-05-24 07:55:43 GMT -31.180595 116.387016 10,000 199 311 -64
2022-05-24 07:55:42 GMT -31.178650 116.387817 10,000 199 310 64
2022-05-24 07:55:40 GMT -31.175949 116.388893 10,000 199 310 64
2022-05-24 07:55:39 GMT -31.174032 116.389603 10,000 199 310 64
2022-05-24 07:55:37 GMT -31.172403 116.390259 10,000 199 310 0
2022-05-24 07:55:36 GMT -31.171331 116.390701 10,000 199 310 0
2022-05-24 07:55:35 GMT -31.169144 116.391525 10,000 199 309 64
2022-05-24 07:55:34 GMT -31.168028 116.391960 10,000 199 309 64
2022-05-24 07:55:33 GMT -31.165327 116.393059 10,000 199 309 -64
2022-05-24 07:55:30 GMT -31.162067 116.394325 10,000 199 309 64
2022-05-24 07:55:29 GMT -31.160706 116.394867 10,000 199 309 0
2022-05-24 07:55:27 GMT -31.158005 116.395943 10,000 199 310 0
2022-05-24 07:55:26 GMT -31.156622 116.396469 10,000 199 310 -64
2022-05-24 07:55:25 GMT -31.155807 116.396751 10,000 199 310 0
2022-05-24 07:55:24 GMT -31.153362 116.397728 10,000 199 310 0
2022-05-24 07:55:22 GMT -31.152008 116.398262 10,000 199 310 -64
2022-05-24 07:55:19 GMT -31.148163 116.399773 10,000 199 310 -64
2022-05-24 07:55:18 GMT -31.144611 116.401138 10,000 199 310 0
2022-05-24 07:55:17 GMT -31.143265 116.401657 10,000 199 310 0
2022-05-24 07:55:15 GMT -31.141911 116.402176 10,000 199 310 0
2022-05-24 07:55:13 GMT -31.137535 116.403885 10,000 199 311 0
2022-05-24 07:55:11 GMT -31.136417 116.404320 10,000 199 311 -64
2022-05-24 07:55:10 GMT -31.134789 116.404984 10,000 199 311 -64
2022-05-24 07:55:09 GMT -31.131775 116.406120 10,000 199 311 0
2022-05-24 07:55:06 GMT -31.129074 116.407204 10,000 199 311 -64
2022-05-24 07:55:05 GMT -31.127975 116.407631 10,000 199 311 64
2022-05-24 07:55:03 GMT -31.126038 116.408386 10,000 199 311 128
2022-05-24 07:55:01 GMT -31.123337 116.409485 10,000 199 311 -64
2022-05-24 07:55:00 GMT -31.122219 116.409927 10,000 199 311 -64
2022-05-24 07:54:58 GMT -31.119518 116.410965 10,000 199 311 64
2022-05-24 07:54:57 GMT -31.118402 116.411407 10,000 199 311 64
2022-05-24 07:54:56 GMT -31.116215 116.412285 10,000 199 310 -64
2022-05-24 07:54:55 GMT -31.114838 116.412804 10,000 199 310 0
2022-05-24 07:54:54 GMT -31.112955 116.413551 10,000 199 310 0
2022-05-24 07:54:52 GMT -31.110209 116.414650 10,000 200 309 0
2022-05-24 07:54:51 GMT -31.108841 116.415230 10,000 200 309 -64
2022-05-24 07:54:50 GMT -31.106951 116.415970 10,000 199 309 -64
2022-05-24 07:54:49 GMT -31.105042 116.416733 10,000 199 309 0
2022-05-24 07:54:45 GMT -31.100990 116.418327 10,000 199 309 64
2022-05-24 07:54:44 GMT -31.100189 116.418671 10,000 199 309 0
2022-05-24 07:54:43 GMT -31.098246 116.419426 10,000 199 309 0
2022-05-24 07:54:41 GMT -31.095545 116.420471 10,000 199 310 0
2022-05-24 07:54:40 GMT -31.094193 116.421043 10,000 199 310 0
2022-05-24 07:54:38 GMT -31.090097 116.422615 10,000 199 311 0
2022-05-24 07:54:36 GMT -31.088469 116.423271 10,000 199 310 0
2022-05-24 07:54:35 GMT -31.087097 116.423790 10,000 199 310 64
2022-05-24 07:54:33 GMT -31.084351 116.424866 10,000 199 309 0
2022-05-24 07:54:32 GMT -31.082975 116.425362 10,000 199 309 -64
2022-05-24 07:54:31 GMT -31.081905 116.425797 10,000 199 309 -64
2022-05-24 07:54:29 GMT -31.079718 116.426620 10,000 199 309 0
2022-05-24 07:54:27 GMT -31.076706 116.427826 10,000 199 309 0
2022-05-24 07:54:26 GMT -31.075340 116.428329 10,000 199 310 0
2022-05-24 07:54:25 GMT -31.074005 116.428848 10,000 199 309 0
2022-05-24 07:54:23 GMT -31.071259 116.429932 10,000 199 309 0
2022-05-24 07:54:22 GMT -31.070160 116.430359 10,000 199 309 0
2022-05-24 07:54:21 GMT -31.068266 116.431129 10,000 199 308 0
2022-05-24 07:54:19 GMT -31.065565 116.432175 10,000 199 308 0
2022-05-24 07:54:18 GMT -31.064209 116.432678 10,000 199 308 0
2022-05-24 07:54:17 GMT -31.062819 116.433212 10,000 199 309 128
2022-05-24 07:54:16 GMT -31.061190 116.433876 10,000 199 309 192
2022-05-24 07:54:14 GMT -31.056860 116.435524 10,000 199 308 0
2022-05-24 07:54:12 GMT -31.056860 116.435524 10,000 199 308 0
2022-05-24 07:54:11 GMT -31.054962 116.436279 10,000 199 308 -64
2022-05-24 07:54:10 GMT -31.050856 116.437828 10,000 199 308 -64
2022-05-24 07:54:08 GMT -31.050856 116.437828 10,000 199 308 0
2022-05-24 07:54:07 GMT -31.049515 116.438385 10,000 199 308 64
2022-05-24 07:54:06 GMT -31.046013 116.439751 10,000 199 308 128
2022-05-24 07:54:04 GMT -31.045166 116.440109 10,000 199 308 128
2022-05-24 07:54:02 GMT -31.040567 116.441895 10,000 200 308 64
2022-05-24 07:53:59 GMT -31.037867 116.443047 10,000 201 307 -128
2022-05-24 07:53:58 GMT -31.034958 116.444305 10,000 202 307 -128
2022-05-24 07:53:55 GMT -31.033630 116.444916 10,000 202 306 0
2022-05-24 07:53:54 GMT -31.031799 116.445763 10,000 203 307 64
2022-05-24 07:53:53 GMT -31.028641 116.447327 10,000 204 306 -64
2022-05-24 07:53:51 GMT -31.027084 116.448128 10,000 205 306 -192
2022-05-24 07:53:50 GMT -31.026031 116.448669 10,000 205 306 -128
2022-05-24 07:53:48 GMT -31.023714 116.449860 10,000 205 306 192
2022-05-24 07:53:47 GMT -31.022133 116.450684 10,000 205 306 128
2022-05-24 07:53:46 GMT -31.020859 116.451416 10,000 205 306 128
2022-05-24 07:53:44 GMT -31.017792 116.453087 10,000 205 306 -256
2022-05-24 07:53:41 GMT -31.015987 116.454033 10,000 205 306 -256
2022-05-24 07:53:40 GMT -31.014175 116.455025 10,000 205 306 128
2022-05-24 07:53:38 GMT -31.009796 116.457382 10,000 205 306 -64
2022-05-24 07:53:36 GMT -31.008213 116.458206 10,000 205 306 0
2022-05-24 07:53:35 GMT -31.005890 116.459442 10,000 205 305 64
2022-05-24 07:53:33 GMT -31.004627 116.460129 10,000 205 305 0
2022-05-24 07:53:32 GMT -31.003605 116.460678 10,000 205 305 0
2022-05-24 07:53:31 GMT -31.000532 116.462326 10,000 205 305 64
2022-05-24 07:53:28 GMT -30.997925 116.463699 10,000 205 306 0
2022-05-24 07:53:26 GMT -30.995363 116.465134 10,000 205 306 -64
2022-05-24 07:53:25 GMT -30.994080 116.465797 10,000 205 306 -64
2022-05-24 07:53:24 GMT -30.992804 116.466507 10,000 205 306 0
2022-05-24 07:53:23 GMT -30.990196 116.467880 10,000 205 306 0
2022-05-24 07:53:21 GMT -30.988907 116.468544 10,000 205 306 0
2022-05-24 07:53:20 GMT -30.987637 116.469254 10,000 205 306 0
2022-05-24 07:53:19 GMT -30.985077 116.470627 10,000 205 306 0
2022-05-24 07:53:17 GMT -30.983780 116.471344 10,000 205 306 0
2022-05-24 07:53:16 GMT -30.982224 116.472153 10,000 205 306 -64
2022-05-24 07:53:14 GMT -30.979660 116.473549 10,000 205 305 64
2022-05-24 07:53:12 GMT -30.978327 116.474197 10,000 205 305 0
2022-05-24 07:53:11 GMT -30.976278 116.475296 10,000 205 306 -64
2022-05-24 07:53:10 GMT -30.974487 116.476242 10,000 205 306 0
2022-05-24 07:53:09 GMT -30.973206 116.476944 10,000 205 306 0
2022-05-24 07:53:08 GMT -30.972136 116.477493 10,000 205 306 -64
2022-05-24 07:53:06 GMT -30.969574 116.478867 10,000 205 306 64
2022-05-24 07:53:05 GMT -30.968262 116.479584 10,000 205 306 128
2022-05-24 07:53:04 GMT -30.967014 116.480240 10,000 205 306 64
2022-05-24 07:53:02 GMT -30.963383 116.482162 10,000 205 306 -64
2022-05-24 07:52:56 GMT -30.957705 116.485237 10,000 205 306 128
2022-05-24 07:52:55 GMT -30.956406 116.485886 10,000 205 306 128
2022-05-24 07:52:53 GMT -30.953842 116.487282 10,000 205 306 64
2022-05-24 07:52:52 GMT -30.952536 116.487984 10,000 205 306 0
2022-05-24 07:52:51 GMT -30.949976 116.489357 10,000 205 306 -64
2022-05-24 07:52:49 GMT -30.948166 116.490356 10,000 205 306 -64
2022-05-24 07:52:48 GMT -30.946903 116.491005 10,000 205 306 -64
2022-05-24 07:52:46 GMT -30.944809 116.492104 10,000 205 306 0
2022-05-24 07:52:45 GMT -30.943542 116.492828 10,000 205 306 -64
2022-05-24 07:52:44 GMT -30.941437 116.493904 10,000 205 306 -64
2022-05-24 07:52:42 GMT -30.938873 116.495308 10,000 205 306 0
2022-05-24 07:52:41 GMT -30.936310 116.496712 10,000 205 306 64
2022-05-24 07:52:39 GMT -30.934475 116.497650 10,000 205 306 64
2022-05-24 07:52:38 GMT -30.933451 116.498199 10,000 205 306 64
2022-05-24 07:52:33 GMT -30.926468 116.501930 10,000 205 306 -64
2022-05-24 07:52:30 GMT -30.922091 116.504242 10,000 205 306 -64
2022-05-24 07:52:25 GMT -30.916168 116.507423 10,000 205 306 0
2022-05-24 07:52:24 GMT -30.914877 116.508141 10,000 205 306 64
2022-05-24 07:52:22 GMT -30.912552 116.509361 10,000 205 306 64
2022-05-24 07:52:21 GMT -30.909943 116.510765 10,000 205 305 -64
2022-05-24 07:52:18 GMT -30.908173 116.511711 10,000 205 305 -64
2022-05-24 07:52:17 GMT -30.907148 116.512260 10,000 205 305 -64
2022-05-24 07:52:16 GMT -30.905565 116.513084 10,000 205 306 -64
2022-05-24 07:52:14 GMT -30.901981 116.515007 10,000 205 306 0
2022-05-24 07:52:13 GMT -30.901981 116.515007 10,000 205 306 0
2022-05-24 07:52:11 GMT -30.899139 116.516525 10,000 205 306 0
2022-05-24 07:52:10 GMT -30.898132 116.517067 10,000 205 306 64
2022-05-24 07:52:09 GMT -30.896301 116.518028 10,000 205 306 64
2022-05-24 07:52:08 GMT -30.894516 116.519005 10,000 205 306 64
2022-05-24 07:52:07 GMT -30.893463 116.519539 10,000 205 306 64
2022-05-24 07:52:06 GMT -30.892204 116.520226 10,000 205 306 -64
2022-05-24 07:52:04 GMT -30.889343 116.521751 10,000 205 306 -64
2022-05-24 07:52:03 GMT -30.888062 116.522476 10,000 205 306 0
2022-05-24 07:52:02 GMT -30.886780 116.523148 10,000 205 306 0
2022-05-24 07:52:00 GMT -30.883965 116.524673 10,000 205 306 0
2022-05-24 07:51:59 GMT -30.882660 116.525360 10,000 205 306 0
2022-05-24 07:51:57 GMT -30.880335 116.526596 10,000 205 306 0
2022-05-24 07:51:56 GMT -30.879044 116.527298 10,000 205 306 0
2022-05-24 07:51:54 GMT -30.877487 116.528107 10,000 205 306 0
2022-05-24 07:51:53 GMT -30.874924 116.529503 10,000 205 306 0
2022-05-24 07:51:51 GMT -30.873631 116.530228 10,000 205 306 0
2022-05-24 07:51:50 GMT -30.872606 116.530777 10,000 205 307 0
2022-05-24 07:51:47 GMT -30.867950 116.533249 10,000 205 307 -64
2022-05-24 07:51:46 GMT -30.865343 116.534622 10,000 205 307 -64
2022-05-24 07:51:44 GMT -30.863808 116.535500 10,000 205 307 0
2022-05-24 07:51:43 GMT -30.863022 116.535912 10,000 205 307 0
2022-05-24 07:51:41 GMT -30.859665 116.537697 10,000 205 306 -64
2022-05-24 07:51:40 GMT -30.858353 116.538391 10,000 205 306 -64
2022-05-24 07:51:38 GMT -30.854736 116.540329 10,000 205 306 -64
2022-05-24 07:51:36 GMT -30.853180 116.541138 10,000 205 307 0
2022-05-24 07:51:34 GMT -30.851624 116.541946 10,000 205 307 0
2022-05-24 07:51:33 GMT -30.849796 116.542915 10,000 205 307 0
2022-05-24 07:51:32 GMT -30.847748 116.544014 10,000 205 308 0
2022-05-24 07:51:30 GMT -30.845901 116.545013 10,000 205 308 0
2022-05-24 07:51:29 GMT -30.844627 116.545715 10,000 205 308 128
2022-05-24 07:51:27 GMT -30.842533 116.546814 10,000 205 308 -64
2022-05-24 07:51:26 GMT -30.840998 116.547638 10,000 205 308 -64
2022-05-24 07:51:25 GMT -30.839172 116.548622 10,000 205 307 -64
2022-05-24 07:51:23 GMT -30.837366 116.549561 10,000 205 307 0
2022-05-24 07:51:22 GMT -30.836060 116.550240 10,000 205 307 0
2022-05-24 07:51:21 GMT -30.834503 116.551102 10,000 205 307 0
2022-05-24 07:51:20 GMT -30.832443 116.552177 10,000 205 307 64
2022-05-24 07:51:18 GMT -30.830616 116.553185 10,000 205 307 0
2022-05-24 07:51:17 GMT -30.828827 116.554115 10,000 205 306 0
2022-05-24 07:51:15 GMT -30.826984 116.555107 10,000 205 307 0
2022-05-24 07:51:14 GMT -30.825449 116.555931 10,000 205 307 0
2022-05-24 07:51:13 GMT -30.823355 116.557030 10,000 205 306 64
2022-05-24 07:51:11 GMT -30.822098 116.557724 10,000 205 306 0
2022-05-24 07:51:10 GMT -30.820280 116.558678 10,000 205 306 0
2022-05-24 07:51:09 GMT -30.818188 116.559776 10,000 205 306 0
2022-05-24 07:51:06 GMT -30.814556 116.561699 10,000 205 306 64
2022-05-24 07:51:05 GMT -30.812759 116.562683 10,000 205 306 64
2022-05-24 07:51:03 GMT -30.811483 116.563347 10,000 205 306 64
2022-05-24 07:51:02 GMT -30.809900 116.564171 10,000 205 306 0
2022-05-24 07:51:01 GMT -30.808640 116.564888 10,000 205 306 0
2022-05-24 07:51:00 GMT -30.807341 116.565598 10,000 205 306 0
2022-05-24 07:50:58 GMT -30.804733 116.566971 10,000 205 306 0
2022-05-24 07:50:57 GMT -30.802917 116.567902 10,000 205 307 -64
2022-05-24 07:50:56 GMT -30.801361 116.568764 10,000 205 307 0
2022-05-24 07:50:55 GMT -30.800077 116.569443 10,000 205 307 -64
2022-05-24 07:50:54 GMT -30.797470 116.570816 10,000 205 307 -64
2022-05-24 07:50:52 GMT -30.796188 116.571510 10,000 205 307 -64
2022-05-24 07:50:51 GMT -30.795135 116.572052 10,000 205 307 -64
2022-05-24 07:50:50 GMT -30.792257 116.573563 10,000 205 308 64
2022-05-24 07:50:47 GMT -30.790970 116.574257 10,000 205 309 64
2022-05-24 07:50:46 GMT -30.789139 116.575211 10,000 205 309 64
2022-05-24 07:50:45 GMT -30.786531 116.576584 10,000 205 309 0
2022-05-24 07:50:43 GMT -30.784483 116.577682 10,000 205 309 0
2022-05-24 07:50:42 GMT -30.783413 116.578232 10,000 205 309 64
2022-05-24 07:50:40 GMT -30.781876 116.579117 10,000 205 309 64
2022-05-24 07:50:39 GMT -30.780579 116.579803 10,000 205 309 0
2022-05-24 07:50:38 GMT -30.777969 116.581154 10,000 205 309 -64
2022-05-24 07:50:36 GMT -30.776663 116.581863 10,000 205 310 0
2022-05-24 07:50:35 GMT -30.774811 116.582825 10,000 205 310 64
2022-05-24 07:50:34 GMT -30.774055 116.583237 10,000 205 310 -64
2022-05-24 07:50:32 GMT -30.770645 116.585030 10,000 205 309 64
2022-05-24 07:50:31 GMT -30.769592 116.585571 10,000 205 309 64
2022-05-24 07:50:29 GMT -30.766479 116.587234 10,000 205 309 -64
2022-05-24 07:50:28 GMT -30.765163 116.587959 10,000 205 309 0
2022-05-24 07:50:26 GMT -30.762556 116.589333 10,000 205 309 0
2022-05-24 07:50:25 GMT -30.761261 116.590034 10,000 205 309 0
2022-05-24 07:50:23 GMT -30.758413 116.591583 10,000 205 308 0
2022-05-24 07:50:21 GMT -30.756592 116.592514 10,000 205 308 0
2022-05-24 07:50:19 GMT -30.753433 116.594185 10,000 205 308 -64
2022-05-24 07:50:18 GMT -30.752176 116.594879 10,000 205 308 0
2022-05-24 07:50:16 GMT -30.749569 116.596306 10,000 205 309 0
2022-05-24 07:50:15 GMT -30.747986 116.597130 10,000 205 309 -64
2022-05-24 07:50:14 GMT -30.745892 116.598228 10,000 205 309 0
2022-05-24 07:50:11 GMT -30.742538 116.600052 10,000 205 309 0
2022-05-24 07:50:08 GMT -30.739380 116.601723 10,000 205 309 0
2022-05-24 07:50:07 GMT -30.738117 116.602402 10,000 205 309 64
2022-05-24 07:50:05 GMT -30.735510 116.603775 10,000 205 309 0
2022-05-24 07:50:04 GMT -30.731833 116.605698 10,000 205 309 0
2022-05-24 07:50:02 GMT -30.731833 116.605698 10,000 205 309 0
2022-05-24 07:50:01 GMT -30.730545 116.606407 10,000 205 309 0
2022-05-24 07:49:59 GMT -30.725327 116.609154 10,000 205 308 -128
2022-05-24 07:49:57 GMT -30.725327 116.609154 10,000 205 308 -128
2022-05-24 07:49:56 GMT -30.724010 116.609879 10,000 205 309 -128
2022-05-24 07:49:55 GMT -30.722717 116.610558 10,000 205 309 -64
2022-05-24 07:49:53 GMT -30.720108 116.611954 10,000 205 308 0
2022-05-24 07:49:52 GMT -30.718798 116.612625 10,000 205 308 64
2022-05-24 07:49:51 GMT -30.717499 116.613304 10,000 205 308 64
2022-05-24 07:49:48 GMT -30.713333 116.615509 10,000 205 308 64
2022-05-24 07:49:47 GMT -30.712002 116.616196 10,000 205 308 64
2022-05-24 07:49:46 GMT -30.710978 116.616745 10,000 205 308 0
2022-05-24 07:49:44 GMT -30.708370 116.618118 10,000 205 308 64
2022-05-24 07:49:43 GMT -30.706787 116.618942 10,000 205 308 0
2022-05-24 07:49:42 GMT -30.705505 116.619659 10,000 205 308 0
2022-05-24 07:49:40 GMT -30.702597 116.621140 10,000 205 310 64
2022-05-24 07:49:39 GMT -30.701294 116.621864 10,000 205 308 0
2022-05-24 07:49:38 GMT -30.700287 116.622406 10,000 205 308 0
2022-05-24 07:49:37 GMT -30.697384 116.623940 10,000 205 308 0
2022-05-24 07:49:35 GMT -30.696075 116.624611 10,000 205 308 -64
2022-05-24 07:49:34 GMT -30.694777 116.625313 10,000 205 308 0
2022-05-24 07:49:33 GMT -30.693466 116.625961 10,000 205 309 0
2022-05-24 07:49:32 GMT -30.690903 116.627357 10,000 205 309 -64
2022-05-24 07:49:30 GMT -30.689564 116.628059 10,000 205 309 -64
2022-05-24 07:49:29 GMT -30.688293 116.628761 10,000 205 309 -128
2022-05-24 07:49:27 GMT -30.685684 116.630104 10,000 205 308 -64
2022-05-24 07:49:26 GMT -30.684395 116.630806 10,000 205 308 -64
2022-05-24 07:49:25 GMT -30.683075 116.631508 10,000 205 307 -128
2022-05-24 07:49:24 GMT -30.681789 116.632179 10,000 205 307 -64
2022-05-24 07:49:20 GMT -30.676064 116.635201 10,000 205 307 -64
2022-05-24 07:49:19 GMT -30.675037 116.635750 10,000 205 307 0
2022-05-24 07:49:18 GMT -30.673737 116.636459 10,000 205 307 0
2022-05-24 07:49:16 GMT -30.668287 116.639320 10,000 205 306 0
2022-05-24 07:49:13 GMT -30.668287 116.639320 10,000 205 306 0
2022-05-24 07:49:12 GMT -30.667511 116.639748 10,000 205 306 0
2022-05-24 07:49:10 GMT -30.664398 116.641357 10,000 205 306 64
2022-05-24 07:49:09 GMT -30.662842 116.642220 10,000 205 306 128
2022-05-24 07:49:08 GMT -30.660782 116.643303 10,000 205 306 64
2022-05-24 07:49:07 GMT -30.659491 116.643990 10,000 205 305 64
2022-05-24 07:49:06 GMT -30.658218 116.644646 10,000 205 306 64
2022-05-24 07:49:05 GMT -30.657166 116.645241 10,000 205 305 0
2022-05-24 07:49:02 GMT -30.654053 116.646851 10,000 205 306 0
2022-05-24 07:48:59 GMT -30.650436 116.648796 10,000 205 309 0
2022-05-24 07:48:56 GMT -30.644211 116.652077 10,000 205 309 0
2022-05-24 07:48:47 GMT -30.633728 116.657730 10,000 205 313 64
2022-05-24 07:48:44 GMT -30.630569 116.659401 10,000 205 314 -64
2022-05-24 07:48:36 GMT -30.617249 116.666245 10,000 202 314 -64
2022-05-24 07:48:33 GMT -30.615646 116.666992 10,000 199 312 -64
2022-05-24 07:48:30 GMT -30.611801 116.668610 10,000 199 312 -64
2022-05-24 07:48:27 GMT -30.606308 116.670601 10,025 196 311 0
2022-05-24 07:48:24 GMT -30.602139 116.672005 10,025 196 311 0
2022-05-24 07:48:12 GMT -30.587219 116.676315 10,000 192 315 64
2022-05-24 07:48:08 GMT -30.580261 116.677605 10,000 182 319 128
2022-05-24 07:48:06 GMT -30.577332 116.677818 10,000 182 319 128
2022-05-24 07:48:04 GMT -30.574066 116.677933 10,000 176 320 64
2022-05-24 07:48:02 GMT -30.571381 116.677818 9,975 176 320 64
2022-05-24 07:48:01 GMT -30.569641 116.677658 9,975 174 321 64
2022-05-24 07:48:00 GMT -30.568155 116.677498 9,975 172 322 64
2022-05-24 07:47:58 GMT -30.565174 116.677002 9,975 171 322 64
2022-05-24 07:47:57 GMT -30.564569 116.676895 9,975 169 323 0
2022-05-24 07:47:56 GMT -30.563095 116.676529 9,975 168 324 0
2022-05-24 07:47:54 GMT -30.559616 116.675613 9,975 166 325 0
2022-05-24 07:47:51 GMT -30.554701 116.673759 10,000 160 327 -192
2022-05-24 07:47:45 GMT -30.544373 116.668663 10,000 155 327 -128
2022-05-24 07:47:43 GMT -30.544373 116.668663 10,000 155 327 -64
2022-05-24 07:47:41 GMT -30.541899 116.667336 10,000 155 327 0
2022-05-24 07:47:39 GMT -30.537735 116.665169 10,000 155 327 0
2022-05-24 07:47:38 GMT -30.536636 116.664574 10,000 155 326 -64
2022-05-24 07:47:35 GMT -30.533613 116.662994 10,000 155 327 0
2022-05-24 07:47:29 GMT -30.525650 116.658699 10,000 155 326 64
2022-05-24 07:47:26 GMT -30.520157 116.655792 10,000 155 325 64
2022-05-24 07:47:22 GMT -30.513611 116.652237 10,000 155 325 0
2022-05-24 07:47:19 GMT -30.510864 116.650787 10,000 155 326 0
2022-05-24 07:47:13 GMT -30.503174 116.646690 10,000 155 327 0
2022-05-24 07:47:12 GMT -30.501818 116.645966 10,000 155 326 0
2022-05-24 07:47:11 GMT -30.499329 116.644646 10,000 155 326 0
2022-05-24 07:47:09 GMT -30.497953 116.643936 10,000 155 326 0
2022-05-24 07:47:07 GMT -30.495483 116.642601 10,000 155 325 -64
2022-05-24 07:47:06 GMT -30.493019 116.641296 10,000 155 325 -64
2022-05-24 07:47:04 GMT -30.491638 116.640556 10,000 155 325 -64
2022-05-24 07:47:03 GMT -30.490273 116.639870 10,000 155 325 -64
2022-05-24 07:47:02 GMT -30.487244 116.638290 10,000 155 324 -64
2022-05-24 07:47:00 GMT -30.485596 116.637428 10,000 155 324 -128
2022-05-24 07:46:56 GMT -30.480404 116.634705 10,000 155 321 64
2022-05-24 07:46:51 GMT -30.470810 116.629730 10,025 155 321 64
2022-05-24 07:46:48 GMT -30.468109 116.628326 10,000 156 320 0
2022-05-24 07:46:39 GMT -30.454514 116.621384 10,000 155 321 64
2022-05-24 07:46:35 GMT -30.451767 116.619980 10,000 155 321 64
2022-05-24 07:46:24 GMT -30.434549 116.611031 10,000 155 324 64
2022-05-24 07:46:15 GMT -30.422791 116.604851 10,000 155 324 -64
2022-05-24 07:46:08 GMT -30.412111 116.599220 10,000 155 323 64
2022-05-24 07:46:04 GMT -30.409410 116.597794 10,000 155 323 0
2022-05-24 07:45:57 GMT -30.397705 116.591599 10,000 155 322 0
2022-05-24 07:45:52 GMT -30.392513 116.588890 10,000 155 323 -64
2022-05-24 07:45:50 GMT -30.389812 116.587463 10,000 155 323 -64
2022-05-24 07:45:49 GMT -30.388458 116.586754 10,000 155 323 0
2022-05-24 07:45:48 GMT -30.387066 116.586037 10,000 155 323 0
2022-05-24 07:45:44 GMT -30.380503 116.582573 10,000 155 323 0
2022-05-24 07:45:36 GMT -30.368540 116.576256 10,000 155 323 0
2022-05-24 07:45:32 GMT -30.365791 116.574829 10,000 155 324 0
2022-05-24 07:45:25 GMT -30.353874 116.568237 10,000 153 324 64
2022-05-24 07:45:19 GMT -30.347214 116.564186 10,000 151 325 128
2022-05-24 07:45:11 GMT -30.336090 116.555733 10,000 143 328 64
2022-05-24 07:45:00 GMT -30.325384 116.544670 10,000 135 329 0
2022-05-24 07:44:50 GMT -30.313234 116.530777 10,000 135 330 0
2022-05-24 07:44:40 GMT -30.302582 116.518517 10,000 135 330 0
2022-05-24 07:44:33 GMT -30.295404 116.510338 10,000 135 329 0
2022-05-24 07:44:32 GMT -30.294342 116.509094 10,000 135 329 0
2022-05-24 07:44:30 GMT -30.292379 116.506882 10,000 135 329 0
2022-05-24 07:44:29 GMT -30.290451 116.504623 10,000 135 330 0
2022-05-24 07:44:19 GMT -30.279390 116.491936 10,000 135 331 0
2022-05-24 07:44:14 GMT -30.275063 116.486992 10,000 135 330 0
2022-05-24 07:44:13 GMT -30.272875 116.484467 10,000 135 331 0
2022-05-24 07:44:07 GMT -30.266510 116.477264 10,000 131 332 0
2022-05-24 07:43:56 GMT -30.255569 116.464828 10,000 131 332 0
2022-05-24 07:43:52 GMT -30.251633 116.460304 10,000 135 330 0
2022-05-24 07:43:51 GMT -30.250528 116.459091 10,000 134 330 0
2022-05-24 07:43:48 GMT -30.246460 116.454323 10,000 134 330 0
2022-05-24 07:43:45 GMT -30.243639 116.451012 10,000 134 330 0
2022-05-24 07:43:44 GMT -30.242382 116.449478 10,000 134 330 64
2022-05-24 07:43:43 GMT -30.240240 116.446945 10,000 134 330 0
2022-05-24 07:43:41 GMT -30.239182 116.445656 10,000 133 331 0
2022-05-24 07:43:31 GMT -30.227737 116.430794 10,000 131 332 0
2022-05-24 07:43:22 GMT -30.220322 116.419426 10,000 125 333 0
2022-05-24 07:43:20 GMT -30.218536 116.416519 10,000 125 333 0
2022-05-24 07:43:12 GMT -30.209656 116.401924 10,000 125 333 0
2022-05-24 07:43:04 GMT -30.203568 116.392067 10,000 125 334 0
2022-05-24 07:42:57 GMT -30.198212 116.383293 10,000 125 334 0
2022-05-24 07:42:56 GMT -30.196575 116.380699 10,000 125 334 0
2022-05-24 07:42:54 GMT -30.195694 116.379250 10,000 125 334 0
2022-05-24 07:42:53 GMT -30.194805 116.377792 10,000 125 334 64
2022-05-24 07:42:51 GMT -30.192989 116.374878 10,000 125 334 64
2022-05-24 07:42:48 GMT -30.189560 116.369339 10,000 125 335 64
2022-05-24 07:42:47 GMT -30.187916 116.366692 10,000 125 335 64
2022-05-24 07:42:45 GMT -30.187042 116.365250 10,000 125 335 64
2022-05-24 07:42:44 GMT -30.186310 116.364120 10,000 125 335 0
2022-05-24 07:42:43 GMT -30.185402 116.362625 10,000 125 335 0
2022-05-24 07:42:42 GMT -30.183586 116.359718 10,000 125 335 64
2022-05-24 07:42:40 GMT -30.182693 116.358246 10,000 125 335 64
2022-05-24 07:42:38 GMT -30.181072 116.355652 10,000 125 334 64
2022-05-24 07:42:36 GMT -30.179256 116.352737 10,000 125 334 64
2022-05-24 07:42:35 GMT -30.178345 116.351303 10,000 125 334 0
2022-05-24 07:42:33 GMT -30.174974 116.345711 9,975 124 334 64
2022-05-24 07:42:31 GMT -30.174974 116.345711 9,975 124 334 64
2022-05-24 07:42:30 GMT -30.174088 116.344299 9,975 124 334 64
2022-05-24 07:42:25 GMT -30.169830 116.337189 9,975 124 334 64
2022-05-24 07:42:19 GMT -30.164221 116.327309 9,975 120 338 -64
2022-05-24 07:42:18 GMT -30.163242 116.325439 9,975 120 338 -64
2022-05-24 07:42:16 GMT -30.161545 116.322006 9,975 117 341 -128
2022-05-24 07:42:13 GMT -30.160217 116.319069 9,975 115 342 -64
2022-05-24 07:42:06 GMT -30.153933 116.300720 10,000 107 342 -64
2022-05-24 07:42:03 GMT -30.153671 116.299706 10,000 106 343 -64
2022-05-24 07:41:59 GMT -30.152252 116.294052 10,000 105 344 -64
2022-05-24 07:41:51 GMT -30.148859 116.280289 10,025 106 340 -896
2022-05-24 07:41:46 GMT -30.145981 116.268684 10,175 106 340 -896
2022-05-24 07:41:42 GMT -30.145111 116.265190 10,075 105 342 -576
2022-05-24 07:41:41 GMT -30.144669 116.263420 10,075 105 341 -576
2022-05-24 07:41:38 GMT -30.142574 116.255020 10,375 105 341 -1216
2022-05-24 07:41:35 GMT -30.141266 116.249786 10,375 105 341 -1216
2022-05-24 07:41:26 GMT -30.137878 116.236267 10,375 104 375 -1536
2022-05-24 07:41:18 GMT -30.128815 116.201103 11,025 104 375 -1536
2022-05-24 07:41:07 GMT -30.128815 116.201103 10,950 105 371 -1472
2022-05-24 07:41:06 GMT -30.128189 116.198441 10,975 104 372 -1536
2022-05-24 07:41:05 GMT -30.124191 116.173256 11,025 102 380 -1664
2022-05-24 07:40:54 GMT -30.124191 116.173256 11,325 89 397 -2560
2022-05-24 07:40:40 GMT -30.126343 116.146225 11,950 75 405 -4544
2022-05-24 07:40:34 GMT -30.129684 116.133835 12,400 59 410 -4288
2022-05-24 07:40:33 GMT -30.130377 116.131805 12,475 59 410 -4288
2022-05-24 07:40:32 GMT -30.131104 116.129799 12,525 59 410 -4288
2022-05-24 07:40:27 GMT -30.135265 116.119995 12,875 59 410 -4288
2022-05-24 07:40:25 GMT -30.137175 116.116203 13,025 54 411 -4544
2022-05-24 07:40:24 GMT -30.138803 116.113235 13,125 54 411 -4544
2022-05-24 07:40:23 GMT -30.139893 116.111435 13,200 54 411 -4544
2022-05-24 07:40:22 GMT -30.143272 116.106155 13,425 52 411 -4864
2022-05-24 07:40:20 GMT -30.143272 116.106155 13,425 50 410 -4992
2022-05-24 07:40:16 GMT -30.147741 116.100166 13,725 41 407 -6016
2022-05-24 07:40:12 GMT -30.153397 116.093765 14,100 41 407 -6016
2022-05-24 07:40:11 GMT -30.154541 116.092636 14,175 37 404 -5632
2022-05-24 07:40:08 GMT -30.159210 116.088272 14,450 35 404 -5184
2022-05-24 07:40:06 GMT -30.161940 116.085991 14,650 35 404 -5184
2022-05-24 07:40:05 GMT -30.163151 116.085007 14,725 34 403 -4928
2022-05-24 07:40:04 GMT -30.164703 116.083801 14,800 33 403 -4608
2022-05-24 07:40:03 GMT -30.167221 116.081917 14,925 31 403 -4160
2022-05-24 07:40:02 GMT -30.169481 116.080391 15,025 30 403 -4032
2022-05-24 07:40:01 GMT -30.171112 116.079338 15,100 22 404 -3520
2022-05-24 07:39:55 GMT -30.179810 116.074379 15,425 22 404 -3520
2022-05-24 07:39:53 GMT -30.183975 116.072441 15,550 19 404 -3456
2022-05-24 07:39:52 GMT -30.184708 116.072121 15,575 19 404 -3456
2022-05-24 07:39:51 GMT -30.187546 116.070984 15,675 17 404 -3648
2022-05-24 07:39:49 GMT -30.191116 116.069695 15,775 15 404 -3776
2022-05-24 07:39:47 GMT -30.196575 116.068085 15,975 13 405 -3904
2022-05-24 07:39:45 GMT -30.198395 116.067543 16,025 13 405 -4032
2022-05-24 07:39:44 GMT -30.200207 116.067039 16,100 13 406 -4160
2022-05-24 07:39:43 GMT -30.201694 116.066658 16,150 13 406 -4224
2022-05-24 07:39:40 GMT -30.207514 116.065010 16,350 13 406 -4416
2022-05-24 07:39:39 GMT -30.209381 116.064468 16,425 13 407 -4544
2022-05-24 07:39:36 GMT -30.214125 116.063141 16,625 13 407 -4544
2022-05-24 07:39:34 GMT -30.221479 116.061050 16,925 13 408 -4416
2022-05-24 07:39:32 GMT -30.221479 116.061050 16,925 13 408 -4352
2022-05-24 07:39:30 GMT -30.225159 116.060013 17,050 13 408 -4416
2022-05-24 07:39:29 GMT -30.227005 116.059517 17,125 13 409 -4416
2022-05-24 07:39:27 GMT -30.230713 116.058495 17,275 13 409 -4608
2022-05-24 07:39:24 GMT -30.238472 116.056328 17,600 13 410 -4864
2022-05-24 07:39:20 GMT -30.246231 116.054184 18,175 13 408 -5568
2022-05-24 07:39:16 GMT -30.251740 116.052704 18,175 13 407 -6016
2022-05-24 07:39:14 GMT -30.255020 116.051811 18,275 13 407 -6016
2022-05-24 07:39:12 GMT -30.258682 116.050789 18,475 13 405 -6208
2022-05-24 07:39:10 GMT -30.262344 116.049820 18,775 13 403 -6272
2022-05-24 07:39:09 GMT -30.263809 116.049393 18,850 13 402 -6336
2022-05-24 07:39:07 GMT -30.267799 116.048309 19,075 13 400 -6272
2022-05-24 07:39:04 GMT -30.272827 116.046936 19,250 13 398 -6080
2022-05-24 07:39:02 GMT -30.276411 116.045944 19,550 13 398 -5952
2022-05-24 07:39:01 GMT -30.278229 116.045410 19,650 13 398 -5888
2022-05-24 07:39:00 GMT -30.282185 116.044357 19,850 13 395 -5632
2022-05-24 07:38:58 GMT -30.283951 116.043846 19,950 13 395 -5568
2022-05-24 07:38:57 GMT -30.285723 116.043365 20,050 13 394 -5504
2022-05-24 07:38:54 GMT -30.290703 116.041992 20,300 13 393 -5440
2022-05-24 07:38:53 GMT -30.292845 116.041389 20,375 13 393 -5120
2022-05-24 07:38:51 GMT -30.302444 116.038727 20,675 13 393 -4224
2022-05-24 07:38:48 GMT -30.302444 116.038727 20,850 13 394 -3840
2022-05-24 07:38:46 GMT -30.304203 116.038254 20,900 13 395 -3776
2022-05-24 07:38:45 GMT -30.306345 116.037651 20,950 13 396 -3776
2022-05-24 07:38:44 GMT -30.307789 116.037270 21,025 13 396 -3776
2022-05-24 07:38:42 GMT -30.312769 116.035843 21,175 13 396 -3776
2022-05-24 07:38:39 GMT -30.318146 116.034363 21,375 13 397 -3776
2022-05-24 07:38:37 GMT -30.323523 116.032875 21,475 13 397 -3776
2022-05-24 07:38:34 GMT -30.327106 116.031830 21,675 13 399 -3584
2022-05-24 07:38:32 GMT -30.330322 116.030975 21,775 13 399 -3520
2022-05-24 07:38:30 GMT -30.333939 116.029953 21,900 13 400 -3456
2022-05-24 07:38:29 GMT -30.335358 116.029518 21,950 13 401 -3456
2022-05-24 07:38:27 GMT -30.340439 116.028122 22,100 13 402 -3520
2022-05-24 07:38:25 GMT -30.342590 116.027527 22,150 13 402 -3520
2022-05-24 07:38:23 GMT -30.348057 116.026009 22,275 13 403 -3520
2022-05-24 07:38:21 GMT -30.349869 116.025482 22,400 13 404 -3520
2022-05-24 07:38:19 GMT -30.354996 116.024078 22,550 13 405 -3520
2022-05-24 07:38:17 GMT -30.358995 116.022934 22,675 13 406 -3456
2022-05-24 07:38:14 GMT -30.362673 116.021942 22,775 13 407 -3456
2022-05-24 07:38:13 GMT -30.364517 116.021385 22,850 13 408 -3456
2022-05-24 07:38:12 GMT -30.368179 116.020363 22,950 13 409 -3456
2022-05-24 07:38:10 GMT -30.370028 116.019852 23,025 13 409 -3456
2022-05-24 07:38:08 GMT -30.373707 116.018814 23,125 13 410 -3520
2022-05-24 07:38:06 GMT -30.377430 116.017822 23,225 13 411 -3520
2022-05-24 07:38:05 GMT -30.379257 116.017296 23,300 13 411 -3584
2022-05-24 07:38:04 GMT -30.381107 116.016777 23,350 13 411 -3584
2022-05-24 07:38:03 GMT -30.384832 116.015732 23,475 13 413 -3584
2022-05-24 07:38:01 GMT -30.390427 116.014168 23,650 13 414 -3520
2022-05-24 07:37:59 GMT -30.390427 116.014168 23,650 13 414 -3520
2022-05-24 07:37:58 GMT -30.396423 116.012505 23,775 13 415 -3584
2022-05-24 07:37:56 GMT -30.396423 116.012505 23,825 13 415 -3648
2022-05-24 07:37:55 GMT -30.397888 116.012070 23,900 13 415 -3648
2022-05-24 07:37:54 GMT -30.402056 116.010956 24,000 13 416 -3648
2022-05-24 07:37:52 GMT -30.403931 116.010399 24,075 13 417 -3648
2022-05-24 07:37:50 GMT -30.407684 116.009377 24,200 13 417 -3648
2022-05-24 07:37:49 GMT -30.409552 116.008812 24,250 13 418 -3712
2022-05-24 07:37:48 GMT -30.411438 116.008301 24,300 13 418 -3712
2022-05-24 07:37:47 GMT -30.413322 116.007767 24,375 13 418 -3712
2022-05-24 07:37:46 GMT -30.417480 116.006630 24,500 13 419 -3840
2022-05-24 07:37:44 GMT -30.418991 116.006203 24,550 13 419 -3840
2022-05-24 07:37:43 GMT -30.420862 116.005630 24,625 13 419 -3968
2022-05-24 07:37:42 GMT -30.424681 116.004585 24,750 13 420 -4096
2022-05-24 07:37:40 GMT -30.426544 116.004044 24,800 13 420 -4160
2022-05-24 07:37:38 GMT -30.430344 116.003021 24,950 13 420 -4160
2022-05-24 07:37:37 GMT -30.432222 116.002495 25,000 13 422 -4096
2022-05-24 07:37:36 GMT -30.433758 116.002060 25,075 13 420 -4096
2022-05-24 07:37:33 GMT -30.439857 116.000351 25,275 13 421 -3904
2022-05-24 07:37:30 GMT -30.444031 115.999199 25,425 13 421 -3904
2022-05-24 07:37:29 GMT -30.446274 115.998550 25,500 13 422 -3840
2022-05-24 07:37:28 GMT -30.448189 115.998047 25,575 13 422 -3904
2022-05-24 07:37:26 GMT -30.452007 115.996948 25,700 13 422 -4224
2022-05-24 07:37:24 GMT -30.455824 115.995903 25,825 13 422 -4736
2022-05-24 07:37:23 GMT -30.457718 115.995377 25,900 13 421 -5120
2022-05-24 07:37:20 GMT -30.464949 115.993378 26,225 13 419 -5440
2022-05-24 07:37:19 GMT -30.466827 115.992844 26,325 13 418 -5440
2022-05-24 07:37:18 GMT -30.470581 115.991768 26,500 13 417 -5312
2022-05-24 07:37:14 GMT -30.476259 115.990189 26,750 13 417 -4928
2022-05-24 07:37:13 GMT -30.478134 115.989670 26,825 13 417 -4480
2022-05-24 07:37:12 GMT -30.479984 115.989151 26,900 13 417 -4160
2022-05-24 07:37:10 GMT -30.483011 115.988327 27,025 13 417 -3840
2022-05-24 07:37:09 GMT -30.490553 115.986183 27,150 13 418 -3264
2022-05-24 07:37:06 GMT -30.490553 115.986183 27,275 13 418 -3328
2022-05-24 07:37:05 GMT -30.492043 115.985794 27,325 13 419 -3456
2022-05-24 07:37:04 GMT -30.495811 115.984695 27,425 13 419 -3456
2022-05-24 07:37:02 GMT -30.498838 115.983871 27,500 13 420 -3520
2022-05-24 07:37:01 GMT -30.500374 115.983437 27,550 13 421 -3520
2022-05-24 07:37:00 GMT -30.502657 115.982773 27,625 13 421 -3456
2022-05-24 07:36:56 GMT -30.513657 115.979706 27,950 13 422 -3328
2022-05-24 07:36:50 GMT -30.521648 115.977448 28,275 13 424 -3264
2022-05-24 07:36:47 GMT -30.527746 115.975693 28,350 13 424 -3264
2022-05-24 07:36:44 GMT -30.533892 115.973984 28,525 13 425 -3456
2022-05-24 07:36:39 GMT -30.543503 115.971306 28,800 13 426 -3328
2022-05-24 07:36:36 GMT -30.547348 115.970222 28,925 13 428 -3264
2022-05-24 07:36:32 GMT -30.556982 115.967560 29,175 13 429 -3328
2022-05-24 07:36:29 GMT -30.562820 115.965919 29,400 13 431 -3200
2022-05-24 07:36:26 GMT -30.566292 115.964920 29,450 13 432 -3200
2022-05-24 07:36:21 GMT -30.577606 115.961769 29,750 13 434 -3392
2022-05-24 07:36:17 GMT -30.583469 115.960144 29,925 13 435 -3328
2022-05-24 07:36:14 GMT -30.592529 115.957626 30,175 13 437 -3072
2022-05-24 07:36:10 GMT -30.599997 115.955528 30,350 13 439 -2816
2022-05-24 07:36:07 GMT -30.605942 115.953857 30,500 13 441 -2688
2022-05-24 07:36:04 GMT -30.611526 115.952293 30,625 13 443 -2560
2022-05-24 07:36:01 GMT -30.617935 115.950462 30,750 13 445 -2560
2022-05-24 07:35:58 GMT -30.623972 115.948776 30,925 13 448 -2624
2022-05-24 07:35:55 GMT -30.634048 115.945938 31,200 13 454 -2176
2022-05-24 07:35:48 GMT -30.644266 115.943008 31,275 13 458 -2112
2022-05-24 07:35:43 GMT -30.656250 115.939636 31,475 13 459 -2240
2022-05-24 07:35:39 GMT -30.662470 115.937897 31,575 13 460 -2240
2022-05-24 07:35:35 GMT -30.670303 115.935707 31,700 13 461 -1856
2022-05-24 07:35:32 GMT -30.676987 115.933823 31,800 13 462 -1664
2022-05-24 07:35:29 GMT -30.683231 115.932022 31,875 13 464 -1408
2022-05-24 07:35:23 GMT -30.697906 115.927895 32,025 13 468 -1472
2022-05-24 07:35:18 GMT -30.707199 115.925255 32,150 13 471 -1920
2022-05-24 07:35:15 GMT -30.712746 115.923721 32,225 13 472 -2112
2022-05-24 07:35:12 GMT -30.720795 115.921486 32,350 13 473 -2240
2022-05-24 07:35:07 GMT -30.731461 115.918503 32,525 13 478 -1024
2022-05-24 07:35:04 GMT -30.737465 115.916855 32,625 13 474 -1856
2022-05-24 07:35:01 GMT -30.744308 115.914932 32,725 13 475 -1664
2022-05-24 07:34:56 GMT -30.754597 115.912025 32,850 13 477 -1344
2022-05-24 07:34:52 GMT -30.761032 115.910179 32,925 13 478 -1216
2022-05-24 07:34:49 GMT -30.769215 115.907852 33,000 13 479 -960
2022-05-24 07:34:44 GMT -30.780029 115.904793 33,075 13 481 -704
2022-05-24 07:34:41 GMT -30.785646 115.903236 33,100 13 482 -512
2022-05-24 07:34:38 GMT -30.792160 115.901344 33,125 13 482 -384
2022-05-24 07:34:34 GMT -30.803057 115.898293 33,175 13 483 -192
2022-05-24 07:34:31 GMT -30.806549 115.897301 33,175 13 483 0
2022-05-24 07:34:27 GMT -30.817814 115.894058 33,175 13 482 896
2022-05-24 07:34:23 GMT -30.824797 115.892136 33,150 13 482 1600
2022-05-24 07:34:20 GMT -30.832169 115.890038 33,075 13 483 1472
2022-05-24 07:34:15 GMT -30.843046 115.886978 32,950 13 479 640
2022-05-24 07:34:12 GMT -30.849144 115.885269 32,925 13 482 896
2022-05-24 07:34:09 GMT -30.856079 115.883347 32,875 13 481 704
2022-05-24 07:34:04 GMT -30.866043 115.880554 32,825 13 480 640
2022-05-24 07:34:01 GMT -30.872513 115.878738 32,775 13 478 640
2022-05-24 07:33:58 GMT -30.882010 115.876099 32,750 13 477 768
2022-05-24 07:33:53 GMT -30.891037 115.873558 32,675 13 476 1088
2022-05-24 07:33:50 GMT -30.896582 115.871979 32,650 13 475 1280
2022-05-24 07:33:48 GMT -30.901291 115.870651 32,600 13 475 1472
2022-05-24 07:33:45 GMT -30.906031 115.869339 32,550 13 475 1600
2022-05-24 07:33:41 GMT -30.916718 115.866341 32,425 13 475 1600
2022-05-24 07:33:38 GMT -30.923584 115.864403 32,350 13 475 1600
2022-05-24 07:33:35 GMT -30.928711 115.862946 32,275 13 475 1536
2022-05-24 07:33:30 GMT -30.939835 115.859825 32,150 13 475 1408
2022-05-24 07:33:27 GMT -30.946701 115.857887 32,075 13 475 1408
2022-05-24 07:33:24 GMT -30.952698 115.856163 32,025 13 475 1344
2022-05-24 07:33:19 GMT -30.964220 115.852921 31,900 13 474 1152
2022-05-24 07:33:16 GMT -30.972336 115.850616 31,825 13 474 1152
2022-05-24 07:33:13 GMT -30.976639 115.849373 31,700 13 473 1088
2022-05-24 07:33:09 GMT -30.984283 115.847221 31,725 13 473 960
2022-05-24 07:33:05 GMT -30.994492 115.844315 31,650 13 471 832
2022-05-24 07:33:00 GMT -31.000443 115.842590 31,625 13 471 768
2022-05-24 07:32:56 GMT -31.010605 115.839737 31,550 13 468 960
2022-05-24 07:32:53 GMT -31.019028 115.837364 31,500 13 468 1088
2022-05-24 07:32:50 GMT -31.022829 115.836273 31,475 13 467 1216
2022-05-24 07:32:47 GMT -31.030838 115.834030 31,400 13 467 1216
2022-05-24 07:32:44 GMT -31.035873 115.832573 31,350 13 466 1152
2022-05-24 07:32:39 GMT -31.045944 115.829773 31,275 13 465 1024
2022-05-24 07:32:34 GMT -31.058487 115.826218 31,150 13 463 960
2022-05-24 07:32:31 GMT -31.064728 115.824463 31,125 13 463 960
2022-05-24 07:32:26 GMT -31.073456 115.822021 31,050 13 461 960
2022-05-24 07:32:22 GMT -31.083021 115.819298 30,975 13 460 1152
2022-05-24 07:32:18 GMT -31.092148 115.816719 30,900 13 459 1472
2022-05-24 07:32:15 GMT -31.095451 115.815781 30,850 13 459 1600
2022-05-24 07:32:12 GMT -31.104528 115.813202 30,750 13 459 1728
2022-05-24 07:32:09 GMT -31.110718 115.811462 30,650 13 458 1792
2022-05-24 07:32:05 GMT -31.116074 115.809959 30,575 13 458 1728
2022-05-24 07:32:03 GMT -31.121847 115.808311 30,450 13 458 1472
2022-05-24 07:32:00 GMT -31.128067 115.806564 30,425 13 458 1408
2022-05-24 07:31:55 GMT -31.137131 115.804031 30,325 13 458 1344
2022-05-24 07:31:52 GMT -31.144983 115.801773 30,200 13 457 1216
2022-05-24 07:31:49 GMT -31.150757 115.800125 30,175 13 457 1216
2022-05-24 07:31:44 GMT -31.160202 115.797462 30,100 13 455 1216
2022-05-24 07:31:41 GMT -31.167143 115.795456 29,950 13 455 1280
2022-05-24 07:31:38 GMT -31.173706 115.793648 29,950 13 455 1280
2022-05-24 07:31:34 GMT -31.180269 115.791779 29,900 13 453 1344
2022-05-24 07:31:30 GMT -31.189255 115.789253 29,775 13 452 1280
2022-05-24 07:31:27 GMT -31.197401 115.786942 29,725 13 451 1216
2022-05-24 07:31:24 GMT -31.200613 115.786011 29,675 13 451 1152
2022-05-24 07:31:20 GMT -31.217239 115.781303 29,575 13 449 1216
2022-05-24 07:31:17 GMT -31.217239 115.781303 29,500 13 448 1216
2022-05-24 07:31:14 GMT -31.221701 115.780022 29,475 13 448 1216
2022-05-24 07:31:11 GMT -31.227768 115.778290 29,425 13 447 1216
2022-05-24 07:31:07 GMT -31.237808 115.775406 29,325 13 445 1408
2022-05-24 07:31:03 GMT -31.243057 115.773926 29,275 13 445 1472
2022-05-24 07:31:00 GMT -31.251068 115.771667 29,175 13 445 1664
2022-05-24 07:30:56 GMT -31.260292 115.769035 29,050 13 444 1600
2022-05-24 07:30:53 GMT -31.263885 115.768005 29,000 13 444 1472
2022-05-24 07:30:51 GMT -31.267868 115.766869 28,950 13 444 1408
2022-05-24 07:30:47 GMT -31.276657 115.764397 28,850 13 442 1280
2022-05-24 07:30:43 GMT -31.284622 115.762131 28,775 13 442 1280
2022-05-24 07:30:40 GMT -31.291389 115.760193 28,700 13 441 1216
2022-05-24 07:30:36 GMT -31.297768 115.758377 28,625 13 440 1152
2022-05-24 07:30:32 GMT -31.309639 115.755028 28,525 13 438 1088
2022-05-24 07:30:30 GMT -31.309639 115.755028 28,500 13 437 1280
2022-05-24 07:30:27 GMT -31.317123 115.752922 28,425 13 436 1408
2022-05-24 07:30:24 GMT -31.323395 115.751144 28,375 13 436 1664
2022-05-24 07:30:21 GMT -31.329285 115.749481 28,350 13 436 1664
2022-05-24 07:30:18 GMT -31.333984 115.748161 28,225 13 435 1856
2022-05-24 07:30:15 GMT -31.340652 115.746246 28,125 13 435 1856
2022-05-24 07:30:12 GMT -31.345367 115.744896 28,050 13 435 1792
2022-05-24 07:30:10 GMT -31.350466 115.743492 27,975 13 434 1792
2022-05-24 07:30:07 GMT -31.356703 115.741684 27,875 13 434 1792
2022-05-24 07:30:03 GMT -31.361023 115.740479 27,825 13 434 1856
2022-05-24 07:29:59 GMT -31.371964 115.737358 27,550 13 434 1856
2022-05-24 07:29:54 GMT -31.381302 115.734665 27,500 13 433 1792
2022-05-24 07:29:51 GMT -31.386795 115.733101 27,425 13 433 1728
2022-05-24 07:29:48 GMT -31.393021 115.731323 27,325 13 432 1600
2022-05-24 07:29:42 GMT -31.403534 115.728333 27,175 13 432 1472
2022-05-24 07:29:37 GMT -31.414810 115.725136 27,050 13 430 1408
2022-05-24 07:29:32 GMT -31.424482 115.722397 26,925 13 428 1472
2022-05-24 07:29:29 GMT -31.427555 115.721519 26,900 13 428 1536
2022-05-24 07:29:26 GMT -31.435638 115.719208 26,775 13 427 1664
2022-05-24 07:29:22 GMT -31.442551 115.717270 26,650 13 426 1728
2022-05-24 07:29:19 GMT -31.448318 115.715645 26,600 13 426 1792
2022-05-24 07:29:14 GMT -31.457886 115.712906 26,450 13 425 1792
2022-05-24 07:29:11 GMT -31.463242 115.711403 26,375 13 424 1856
2022-05-24 07:29:08 GMT -31.470524 115.709328 26,250 13 424 1984
2022-05-24 07:29:03 GMT -31.478531 115.707039 26,125 13 424 1984
2022-05-24 07:28:59 GMT -31.486908 115.704613 25,975 13 422 1984
2022-05-24 07:28:57 GMT -31.490707 115.703537 25,900 13 423 1984
2022-05-24 07:28:53 GMT -31.499084 115.701164 25,775 13 423 1984
2022-05-24 07:28:50 GMT -31.504042 115.699768 25,650 13 422 1984
2022-05-24 07:28:47 GMT -31.509750 115.698097 25,575 13 422 1984
2022-05-24 07:28:42 GMT -31.521149 115.694870 25,400 13 421 1920
2022-05-24 07:28:38 GMT -31.525314 115.693672 25,325 13 421 1920
2022-05-24 07:28:36 GMT -31.531366 115.691910 25,225 13 421 1920
2022-05-24 07:28:31 GMT -31.541981 115.688889 25,025 13 420 1792
2022-05-24 07:28:27 GMT -31.546143 115.687759 24,975 13 419 1792
2022-05-24 07:28:25 GMT -31.552185 115.686035 24,900 13 418 1792
2022-05-24 07:28:20 GMT -31.561981 115.683235 24,725 13 417 1728
2022-05-24 07:28:17 GMT -31.566467 115.681946 24,625 13 416 1664
2022-05-24 07:28:14 GMT -31.573242 115.680000 24,575 13 415 1600
2022-05-24 07:28:08 GMT -31.582214 115.677422 24,450 13 413 1536
2022-05-24 07:28:05 GMT -31.589277 115.675430 24,375 13 412 1536
2022-05-24 07:28:01 GMT -31.596680 115.673294 24,250 13 410 1600
2022-05-24 07:27:58 GMT -31.602997 115.671494 24,175 13 410 1600
2022-05-24 07:27:54 GMT -31.615906 115.667854 24,000 13 408 1920
2022-05-24 07:27:50 GMT -31.615906 115.667854 23,975 13 407 1984
2022-05-24 07:27:46 GMT -31.624329 115.665405 23,775 13 407 2304
2022-05-24 07:27:43 GMT -31.635315 115.662285 23,650 13 407 2432
2022-05-24 07:27:40 GMT -31.635315 115.662285 23,600 13 407 2432
2022-05-24 07:27:35 GMT -31.643372 115.659973 23,375 13 407 2496
2022-05-24 07:27:32 GMT -31.650009 115.658089 23,250 13 407 2560
2022-05-24 07:27:29 GMT -31.661728 115.654747 23,150 13 407 2560
2022-05-24 07:27:26 GMT -31.661728 115.654747 22,975 13 407 2432
2022-05-24 07:27:23 GMT -31.664658 115.653885 22,950 13 407 2368
2022-05-24 07:27:21 GMT -31.670563 115.652214 22,825 13 407 2304
2022-05-24 07:27:18 GMT -31.674608 115.651047 22,750 13 407 2240
2022-05-24 07:27:13 GMT -31.684851 115.648132 22,550 13 406 2112
2022-05-24 07:27:10 GMT -31.689606 115.646774 22,450 13 406 2112
2022-05-24 07:27:06 GMT -31.697279 115.644562 22,325 13 405 1984
2022-05-24 07:27:02 GMT -31.704588 115.642471 22,200 13 404 1920
2022-05-24 07:26:57 GMT -31.712595 115.640221 22,050 13 403 1920
2022-05-24 07:26:53 GMT -31.722046 115.637527 21,825 13 401 1984
2022-05-24 07:26:50 GMT -31.723846 115.637032 21,850 13 401 1984
2022-05-24 07:26:46 GMT -31.732147 115.634621 21,700 13 400 2112
2022-05-24 07:26:43 GMT -31.736801 115.633308 21,525 13 398 2176
2022-05-24 07:26:40 GMT -31.744720 115.631050 21,475 13 398 2240
2022-05-24 07:26:35 GMT -31.751907 115.629005 21,325 13 397 2496
2022-05-24 07:26:31 GMT -31.760124 115.626602 21,125 13 397 2816
2022-05-24 07:26:29 GMT -31.764406 115.625389 21,025 13 397 3072
2022-05-24 07:26:26 GMT -31.769436 115.623962 20,900 13 397 3136
2022-05-24 07:26:23 GMT -31.773020 115.622917 20,800 13 398 3136
2022-05-24 07:26:20 GMT -31.779444 115.621071 20,600 13 398 2944
2022-05-24 07:26:17 GMT -31.785915 115.619217 20,450 13 398 2496
2022-05-24 07:26:14 GMT -31.796310 115.616219 20,300 13 398 2240
2022-05-24 07:26:11 GMT -31.796310 115.616219 20,225 13 397 1984
2022-05-24 07:26:08 GMT -31.801697 115.614677 20,125 13 396 1856
2022-05-24 07:26:05 GMT -31.806677 115.613281 19,950 13 393 1920
2022-05-24 07:26:00 GMT -31.815893 115.610588 19,850 13 392 1984
2022-05-24 07:25:57 GMT -31.821899 115.608856 19,750 13 390 2048
2022-05-24 07:25:54 GMT -31.825378 115.607864 19,700 13 389 2176
2022-05-24 07:25:50 GMT -31.832382 115.605835 19,550 14 388 2560
2022-05-24 07:25:47 GMT -31.837633 115.604309 19,350 14 387 2816
2022-05-24 07:25:44 GMT -31.844618 115.602234 19,250 14 387 2752
2022-05-24 07:25:40 GMT -31.849823 115.600670 19,125 14 386 2624
2022-05-24 07:25:37 GMT -31.856781 115.598640 18,950 14 387 2496
2022-05-24 07:25:33 GMT -31.863007 115.596771 18,800 14 384 2624
2022-05-24 07:25:29 GMT -31.873060 115.593773 18,625 14 383 2944
2022-05-24 07:25:27 GMT -31.873060 115.593773 18,500 14 383 3072
2022-05-24 07:25:24 GMT -31.878553 115.592148 18,350 13 383 3200
2022-05-24 07:25:21 GMT -31.881998 115.591141 18,300 13 384 3200
2022-05-24 07:25:18 GMT -31.886490 115.589851 18,175 13 383 3008
2022-05-24 07:25:15 GMT -31.893448 115.588036 17,975 11 382 2624
2022-05-24 07:25:12 GMT -31.898987 115.586830 17,775 6 377 2432
2022-05-24 07:25:09 GMT -31.903885 115.586060 17,725 5 376 2432
2022-05-24 07:25:05 GMT -31.912170 115.585403 17,525 0 372 2752
2022-05-24 07:25:00 GMT -31.920410 115.585342 17,325 0 370 2816
2022-05-24 07:24:57 GMT -31.924873 115.585533 17,175 357 367 2624
2022-05-24 07:24:54 GMT -31.930618 115.586006 17,050 353 363 2624
2022-05-24 07:24:51 GMT -31.935627 115.586823 16,900 348 359 2688
2022-05-24 07:24:48 GMT -31.938538 115.587540 16,850 345 357 2752
2022-05-24 07:24:46 GMT -31.943308 115.589119 16,700 341 353 2752
2022-05-24 07:24:43 GMT -31.948517 115.591331 16,575 337 349 2624
2022-05-24 07:24:39 GMT -31.954016 115.594444 16,350 329 341 2688
2022-05-24 07:24:36 GMT -31.958391 115.597473 16,250 326 339 2688
2022-05-24 07:24:33 GMT -31.962250 115.600670 16,150 322 336 2880
2022-05-24 07:24:27 GMT -31.969469 115.608124 15,850 314 331 3392
2022-05-24 07:24:23 GMT -31.972961 115.612595 15,650 311 329 3648
2022-05-24 07:24:20 GMT -31.975616 115.616493 15,475 307 327 3776
2022-05-24 07:24:16 GMT -31.979525 115.623253 15,200 301 325 3648
2022-05-24 07:24:13 GMT -31.981295 115.626953 15,050 298 325 3584
2022-05-24 07:24:10 GMT -31.982803 115.630447 14,750 291 322 3392
2022-05-24 07:24:06 GMT -31.986740 115.642143 14,525 287 320 3456
2022-05-24 07:24:04 GMT -31.987997 115.647194 14,525 287 320 3456
2022-05-24 07:24:01 GMT -31.987997 115.647194 14,375 284 319 3264
2022-05-24 07:23:56 GMT -31.989624 115.655655 14,050 282 317 3200
2022-05-24 07:23:53 GMT -31.990494 115.660385 13,975 282 317 3264
2022-05-24 07:23:50 GMT -31.991592 115.666481 13,775 283 316 3264
2022-05-24 07:23:47 GMT -31.992325 115.670486 13,525 282 316 3264
2022-05-24 07:23:44 GMT -31.993057 115.674553 13,475 282 315 3200
2022-05-24 07:23:42 GMT -31.993607 115.677902 13,425 281 315 3200
2022-05-24 07:23:38 GMT -31.994469 115.683678 13,125 279 313 3136
2022-05-24 07:23:35 GMT -31.995483 115.690704 13,025 279 312 3136
2022-05-24 07:23:32 GMT -31.996143 115.695786 12,775 279 311 3136
2022-05-24 07:23:28 GMT -31.996857 115.701469 12,675 279 310 3264
2022-05-24 07:23:25 GMT -31.997726 115.708115 12,500 279 309 3328
2022-05-24 07:23:22 GMT -31.998472 115.713783 12,325 279 308 3584
2022-05-24 07:23:19 GMT -31.998983 115.717758 12,125 279 308 3712
2022-05-24 07:23:16 GMT -31.999729 115.723701 11,975 279 308 3776
2022-05-24 07:23:13 GMT -32.000099 115.726395 11,875 279 308 3712
2022-05-24 07:23:09 GMT -32.001080 115.734352 11,575 279 307 3456
2022-05-24 07:23:05 GMT -32.001682 115.738953 11,450 279 307 3520
2022-05-24 07:23:02 GMT -32.002380 115.744270 11,250 279 306 3712
2022-05-24 07:22:59 GMT -32.003174 115.750526 11,025 279 306 3776
2022-05-24 07:22:56 GMT -32.004616 115.761368 10,750 279 306 3968
2022-05-24 07:22:52 GMT -32.004616 115.761368 10,625 279 305 4288
2022-05-24 07:22:47 GMT -32.005783 115.770302 10,175 279 307 4224
2022-05-24 07:22:44 GMT -32.006432 115.775215 9,950 279 307 4096
2022-05-24 07:22:41 GMT -32.007038 115.779869 9,825 279 308 3776
2022-05-24 07:22:39 GMT -32.007645 115.784523 9,675 279 307 3584
2022-05-24 07:22:36 GMT -32.008247 115.789169 9,500 279 307 3392
2022-05-24 07:22:33 GMT -32.008804 115.793427 9,300 279 305 3072
2022-05-24 07:22:30 GMT -32.009491 115.798698 9,200 279 305 2880
2022-05-24 07:22:27 GMT -32.010109 115.803635 9,050 279 303 2624
2022-05-24 07:22:22 GMT -32.011135 115.811424 8,850 279 299 2304
2022-05-24 07:22:19 GMT -32.012558 115.822540 8,675 279 293 1984
2022-05-24 07:22:15 GMT -32.013229 115.827850 8,525 279 288 2048
2022-05-24 07:22:12 GMT -32.013229 115.827850 8,450 279 285 2112
2022-05-24 07:22:09 GMT -32.013695 115.831490 8,400 279 283 2176
2022-05-24 07:22:05 GMT -32.014626 115.838722 8,225 279 276 2688
2022-05-24 07:22:02 GMT -32.015213 115.843193 8,100 279 274 2816
2022-05-24 07:21:59 GMT -32.015602 115.845840 8,000 279 271 3136
2022-05-24 07:21:57 GMT -32.016174 115.850227 7,800 280 268 3584
2022-05-24 07:21:53 GMT -32.016766 115.854530 7,675 280 267 4032
2022-05-24 07:21:49 GMT -32.017696 115.861427 7,325 280 265 4096
2022-05-24 07:21:46 GMT -32.018280 115.865662 7,175 280 265 4096
2022-05-24 07:21:42 GMT -32.019096 115.871681 6,875 280 264 4096
2022-05-24 07:21:38 GMT -32.019840 115.876785 6,650 280 263 4032
2022-05-24 07:21:35 GMT -32.020477 115.880989 6,425 281 263 3840
2022-05-24 07:21:32 GMT -32.021004 115.884689 6,175 280 260 3648
2022-05-24 07:21:29 GMT -32.021839 115.890236 6,050 280 259 3520
2022-05-24 07:21:26 GMT -32.022259 115.893036 6,000 281 258 3392
2022-05-24 07:21:21 GMT -32.023361 115.900490 5,650 280 254 3072
2022-05-24 07:21:17 GMT -32.024029 115.905647 5,450 279 249 2752
2022-05-24 07:21:15 GMT -32.024494 115.909912 5,325 276 244 2432
2022-05-24 07:21:12 GMT -32.024689 115.912300 5,175 271 239 2240
2022-05-24 07:21:09 GMT -32.024822 115.916748 5,100 269 237 2176
2022-05-24 07:21:06 GMT -32.024506 115.920540 4,975 258 226 2112
2022-05-24 07:21:03 GMT -32.024048 115.923447 4,925 255 224 2112
2022-05-24 07:20:59 GMT -32.022491 115.928635 4,750 246 217 2048
2022-05-24 07:20:56 GMT -32.021713 115.930534 4,700 239 212 1792
2022-05-24 07:20:52 GMT -32.019234 115.934906 4,575 229 204 1088
2022-05-24 07:20:46 GMT -32.015167 115.939545 4,450 219 190 1728
2022-05-24 07:20:44 GMT -32.014069 115.940590 4,425 216 187 1792
2022-05-24 07:20:41 GMT -32.011646 115.942474 4,325 211 183 1792
2022-05-24 07:20:37 GMT -32.008389 115.944550 4,200 205 179 1856
2022-05-24 07:20:34 GMT -32.005783 115.945755 4,050 197 171 1472
2022-05-24 07:20:31 GMT -32.001682 115.947243 4,050 197 171 1472
2022-05-24 07:20:28 GMT -32.001682 115.947243 3,950 195 166 1344
2022-05-24 07:20:25 GMT -31.999590 115.947914 3,900 195 164 1408
2022-05-24 07:20:23 GMT -31.998100 115.948364 3,850 195 161 1728
2022-05-24 07:20:20 GMT -31.995392 115.949158 3,775 195 157 1728
2022-05-24 07:20:17 GMT -31.993584 115.949707 3,650 195 152 1664
2022-05-24 07:20:14 GMT -31.992233 115.950096 3,625 195 149 1600
2022-05-24 07:20:10 GMT -31.988663 115.951187 3,475 195 143 1536
2022-05-24 07:20:04 GMT -31.985483 115.952171 3,325 195 136 1664
2022-05-24 07:20:02 GMT -31.983902 115.952621 3,275 195 134 1792
2022-05-24 07:19:58 GMT -31.981476 115.953384 3,150 195 132 2560
2022-05-24 07:19:53 GMT -31.979370 115.954048 2,925 195 133 2624
2022-05-24 07:19:51 GMT -31.977337 115.954643 2,850 195 133 2688
2022-05-24 07:19:47 GMT -31.975021 115.955307 2,675 195 135 2752
2022-05-24 07:19:43 GMT -31.973194 115.955818 2,550 195 135 2560
2022-05-24 07:19:40 GMT -31.970627 115.956573 2,400 194 135 2624
2022-05-24 07:19:37 GMT -31.968430 115.957176 2,200 194 136 2752
2022-05-24 07:19:34 GMT -31.966919 115.957619 2,100 194 138 2880
2022-05-24 07:19:31 GMT -31.965683 115.957947 2,025 194 138 2880
2022-05-24 07:19:30 GMT -31.965048 115.958115 1,900 194 139 2880
2022-05-24 07:19:29 GMT -31.964447 115.958275 1,900 194 140 3072
2022-05-24 07:19:28 GMT -31.963791 115.958450 1,850 194 140 3136
2022-05-24 07:19:27 GMT -31.962891 115.958717 1,775 194 140 3136
2022-05-24 07:19:26 GMT -31.962254 115.958900 1,750 194 141 3264
2022-05-24 07:19:24 GMT -31.960327 115.959427 1,575 193 142 3136
2022-05-24 07:19:21 GMT -31.958267 115.959976 1,400 193 143 3264
2022-05-24 07:19:19 GMT -31.957645 115.960136 1,350 193 143 3264
2022-05-24 07:19:18 GMT -31.956985 115.960312 1,300 194 144 3328
2022-05-24 07:19:15 GMT -31.954992 115.960861 1,150 194 145 3456
2022-05-24 07:19:14 GMT -31.953827 115.961189 1,050 194 145 3264
2022-05-24 07:19:12 GMT -31.953323 115.961349 1,000 194 145 3072
2022-05-24 07:19:11 GMT -31.952271 115.961624 900 194 145 3264
2022-05-24 07:19:10 GMT -31.950439 115.962120 775 194 145 2944
2022-05-24 07:19:08 GMT -31.950439 115.962120 775 194 146 2816
2022-05-24 07:19:06 GMT -31.949112 115.962509 675 194 145 2688
2022-05-24 07:19:05 GMT -31.948427 115.962654 625 194 144 2688
2022-05-24 07:19:01 GMT -31.946100 115.963326 475 194 146 2560
2022-05-24 07:18:56 GMT -31.942423 115.964394 225 195 147 2240
2022-05-24 07:18:53 GMT -31.940840 115.964897 0 194 135
2022-05-24 07:18:49 GMT -31.938280 115.965652 0 194 135
2022-05-24 07:18:43 GMT -31.934830 115.966652 0 194 86
2022-05-24 07:18:37 GMT -31.932529 115.967323 0 194 86
2022-05-24 07:18:34 GMT -31.931030 115.967766 0 194 65
2022-05-24 07:18:28 GMT -31.929924 115.968094 0 194 40
2022-05-24 07:18:23 GMT -31.929234 115.968300 0 194 15
2022-05-24 07:18:01 GMT -31.929144 115.968330 0 194 0
2022-05-24 07:17:50 GMT -31.929142 115.968330 0 194 0
2022-05-24 07:17:39 GMT -31.929144 115.968330 0 194 0
2022-05-24 07:17:24 GMT -31.928844 115.968399 0 227 8
2022-05-24 07:17:19 GMT -31.928799 115.968620 0 284 8
2022-05-24 07:17:09 GMT -31.928947 115.969292 0 284 17
2022-05-24 07:17:06 GMT -31.928959 115.969330 0 284 18
2022-05-24 07:16:56 GMT -31.929153 115.970253 0 284 15
2022-05-24 07:16:47 GMT -31.929279 115.970871 0 281 12
2022-05-24 07:16:37 GMT -31.929399 115.971397 0 289 10
2022-05-24 07:16:32 GMT -31.929493 115.971596 0 315 9
2022-05-24 07:16:24 GMT -31.929773 115.971649 0 11 10
2022-05-24 07:16:21 GMT -31.929890 115.971626 0 11 10
2022-05-24 07:16:12 GMT -31.930206 115.971527 0 14 12
2022-05-24 07:16:07 GMT -31.930540 115.971443 0 16 16
2022-05-24 07:16:02 GMT -31.931005 115.971298 0 14 20
2022-05-24 07:15:59 GMT -31.931215 115.971245 0 14 21
2022-05-24 07:15:52 GMT -31.931992 115.971008 0 14 21
2022-05-24 07:15:48 GMT -31.932175 115.970955 0 14 20
2022-05-24 07:15:41 GMT -31.932781 115.970772 0 14 17
2022-05-24 07:15:37 GMT -31.933067 115.970703 0 14 15
2022-05-24 07:15:33 GMT -31.933369 115.970604 0 14 13
2022-05-24 07:15:27 GMT -31.933647 115.970528 0 11 11
2022-05-24 07:15:21 GMT -31.934040 115.970413 0 11 16
2022-05-24 07:15:15 GMT -31.934418 115.970306 0 11 21
2022-05-24 07:15:08 GMT -31.935059 115.970131 0 14 31
2022-05-24 07:15:04 GMT -31.935696 115.969925 0 14 31
2022-05-24 07:14:56 GMT -31.936895 115.969566 0 14 30
2022-05-24 07:14:51 GMT -31.937519 115.969383 0 14 30
2022-05-24 07:14:43 GMT -31.938513 115.969101 0 14 28
2022-05-24 07:14:36 GMT -31.939444 115.968819 0 14 25
2022-05-24 07:14:32 GMT -31.939774 115.968742 0 14 24

Making use of Plane Finder data

You are free to use the raw flight data, aircraft information and images provided in this report for your own purposes provided the data is correctly attributed to Plane Finder. We ask that you please credit Plane Finder and link to planefinder.net in close proximity to the content.

Optionally one of the following logos (no smaller then 150x24px) can be used and must link to planefinder.net

Embedding the Plane Finder map

You are welcome to embed the Plane Finder playback map on your website to offer visitors a more interactive experience. We suggest using the following HTML code:

<iframe src="//planefinder.net/data/report/VA9275-VH-YUD-7700-squawk-2022-05-24/map" width="800" height="600" seamless="seamless"></iframe>

Where our data comes from

Plane Finder has a global network of data feeds and antenna radars that receive data broadcast directly from aircraft. The primary technologies used are ADS-B and MLAT. We also show feeds from the FAA and a FLARM glider feed.

Click here to find out more about the Plane Finder network.

How we collect our data